<?xml version='1.0' encoding='UTF-8'?><gpx version="1.1" creator="JPX - https://github.com/jenetics/jpx" xmlns="http://www.topografix.com/GPX/1/1"><trk><trkseg><trkpt lat="49.02401017460966" lon="1.7849991759417363"><ele>186.0</ele><time>2026-03-22T13:57:06Z</time></trkpt><trkpt lat="49.02409112185547" lon="1.7848436822168423"><ele>186.0</ele><time>2026-03-22T13:57:08Z</time></trkpt><trkpt lat="49.02415687866879" lon="1.7847908378199473"><ele>186.0</ele><time>2026-03-22T13:57:09Z</time></trkpt><trkpt lat="49.024235085568634" lon="1.784731664231443"><ele>186.0</ele><time>2026-03-22T13:57:10Z</time></trkpt><trkpt lat="49.02429508258132" lon="1.7846981346504869"><ele>186.0</ele><time>2026-03-22T13:57:11Z</time></trkpt><trkpt lat="49.02439347216623" lon="1.7846681748675262"><ele>186.20000000000002</ele><time>2026-03-22T13:57:13Z</time></trkpt><trkpt lat="49.02447887209531" lon="1.7846746323288687"><ele>186.4</ele><time>2026-03-22T13:57:14Z</time></trkpt><trkpt lat="49.02456745302699" lon="1.7846591132841811"><ele>186.6</ele><time>2026-03-22T13:57:15Z</time></trkpt><trkpt lat="49.02467847814742" lon="1.7846483610158943"><ele>186.8</ele><time>2026-03-22T13:57:16Z</time></trkpt><trkpt lat="49.024773704272505" lon="1.7845970155027868"><ele>187.0</ele><time>2026-03-22T13:57:17Z</time></trkpt><trkpt lat="49.02486068254696" lon="1.784572097088664"><ele>187.0</ele><time>2026-03-22T13:57:18Z</time></trkpt><trkpt lat="49.024934785372324" lon="1.7845197189275845"><ele>187.0</ele><time>2026-03-22T13:57:19Z</time></trkpt><trkpt lat="49.025005590815496" lon="1.784453508263614"><ele>187.0</ele><time>2026-03-22T13:57:20Z</time></trkpt><trkpt lat="49.02509737426883" lon="1.7844186294126425"><ele>187.0</ele><time>2026-03-22T13:57:21Z</time></trkpt><trkpt lat="49.0251972845125" lon="1.7844174170705638"><ele>187.0</ele><time>2026-03-22T13:57:22Z</time></trkpt><trkpt lat="49.025267764880866" lon="1.784417415227685"><ele>187.0</ele><time>2026-03-22T13:57:23Z</time></trkpt><trkpt lat="49.02533040077908" lon="1.7844020913135845"><ele>187.6</ele><time>2026-03-22T13:57:24Z</time></trkpt><trkpt lat="49.025426788538724" lon="1.7843986598265653"><ele>188.2</ele><time>2026-03-22T13:57:26Z</time></trkpt><trkpt lat="49.02549780292027" lon="1.7844273049674277"><ele>188.8</ele><time>2026-03-22T13:57:32Z</time></trkpt><trkpt lat="49.02556749901424" lon="1.7844420417868716"><ele>189.4</ele><time>2026-03-22T13:57:33Z</time></trkpt><trkpt lat="49.02570376145188" lon="1.7844261588364647"><ele>190.0</ele><time>2026-03-22T13:57:35Z</time></trkpt><trkpt lat="49.02579865755387" lon="1.7844267039396031"><ele>189.66666666666669</ele><time>2026-03-22T13:57:36Z</time></trkpt><trkpt lat="49.02590500780461" lon="1.7844410774511201"><ele>189.33333333333334</ele><time>2026-03-22T13:57:37Z</time></trkpt><trkpt lat="49.026005710142016" lon="1.7844612435581853"><ele>189.0</ele><time>2026-03-22T13:57:38Z</time></trkpt><trkpt lat="49.026073621576785" lon="1.7844874586267683"><ele>188.66666666666666</ele><time>2026-03-22T13:57:39Z</time></trkpt><trkpt lat="49.02614122968136" lon="1.7845245485588481"><ele>188.33333333333331</ele><time>2026-03-22T13:57:40Z</time></trkpt><trkpt lat="49.02621734348383" lon="1.7845798591455921"><ele>188.0</ele><time>2026-03-22T13:57:41Z</time></trkpt><trkpt lat="49.02629366829761" lon="1.7846473964073966"><ele>188.0</ele><time>2026-03-22T13:57:42Z</time></trkpt><trkpt lat="49.026350901083866" lon="1.7846939671000441"><ele>188.0</ele><time>2026-03-22T13:57:43Z</time></trkpt><trkpt lat="49.026459160861855" lon="1.7848233566965739"><ele>188.0</ele><time>2026-03-22T13:57:45Z</time></trkpt><trkpt lat="49.026528222639215" lon="1.7848964742300417"><ele>188.0</ele><time>2026-03-22T13:57:46Z</time></trkpt><trkpt lat="49.02659126189206" lon="1.7849393418406014"><ele>188.0</ele><time>2026-03-22T13:57:47Z</time></trkpt><trkpt lat="49.026666660495046" lon="1.7850571159222046"><ele>189.5</ele><time>2026-03-22T13:57:49Z</time></trkpt><trkpt lat="49.026738074506866" lon="1.7851962438753242"><ele>191.0</ele><time>2026-03-22T13:57:51Z</time></trkpt><trkpt lat="49.026804316647016" lon="1.785347146119462"><ele>192.5</ele><time>2026-03-22T13:57:53Z</time></trkpt><trkpt lat="49.0268461969921" lon="1.7854475379926966"><ele>194.0</ele><time>2026-03-22T13:57:57Z</time></trkpt><trkpt lat="49.02739645078059" lon="1.7852278341632528"><ele>193.33333333333334</ele><time>2026-03-22T13:58:01Z</time></trkpt><trkpt lat="49.02753653533707" lon="1.7851406486617696"><ele>192.66666666666669</ele><time>2026-03-22T13:58:02Z</time></trkpt><trkpt lat="49.027714607028116" lon="1.7850517704795537"><ele>192.0</ele><time>2026-03-22T13:58:03Z</time></trkpt><trkpt lat="49.027861273530256" lon="1.7849656774331408"><ele>192.0</ele><time>2026-03-22T13:58:04Z</time></trkpt><trkpt lat="49.027986191502286" lon="1.7848889817055444"><ele>192.0</ele><time>2026-03-22T13:58:05Z</time></trkpt><trkpt lat="49.02807501449866" lon="1.7848425804917563"><ele>192.0</ele><time>2026-03-22T13:58:06Z</time></trkpt><trkpt lat="49.0281784156705" lon="1.784787684474691"><ele>192.0</ele><time>2026-03-22T13:58:07Z</time></trkpt><trkpt lat="49.028298601177646" lon="1.7847364976252533"><ele>192.25</ele><time>2026-03-22T13:58:08Z</time></trkpt><trkpt lat="49.02842370093097" lon="1.7847083737916578"><ele>192.5</ele><time>2026-03-22T13:58:09Z</time></trkpt><trkpt lat="49.02855908198284" lon="1.7847020674157537"><ele>192.75</ele><time>2026-03-22T13:58:10Z</time></trkpt><trkpt lat="49.0286878715893" lon="1.7846956784454724"><ele>193.0</ele><time>2026-03-22T13:58:11Z</time></trkpt><trkpt lat="49.028807631690206" lon="1.7846989401065263"><ele>193.0</ele><time>2026-03-22T13:58:12Z</time></trkpt><trkpt lat="49.02889039324681" lon="1.7847204818861593"><ele>193.0</ele><time>2026-03-22T13:58:13Z</time></trkpt><trkpt lat="49.028975190479805" lon="1.7847525094153744"><ele>193.0</ele><time>2026-03-22T13:58:14Z</time></trkpt><trkpt lat="49.02906950214758" lon="1.7848200443486024"><ele>193.0</ele><time>2026-03-22T13:58:15Z</time></trkpt><trkpt lat="49.02916398069188" lon="1.7849126459028493"><ele>193.0</ele><time>2026-03-22T13:58:16Z</time></trkpt><trkpt lat="49.02924483580278" lon="1.7849215101792035"><ele>191.8</ele><time>2026-03-22T13:58:17Z</time></trkpt><trkpt lat="49.02936944797081" lon="1.784971081687465"><ele>190.60000000000002</ele><time>2026-03-22T13:58:18Z</time></trkpt><trkpt lat="49.02944975892531" lon="1.7850103755809714"><ele>189.39999999999998</ele><time>2026-03-22T13:58:19Z</time></trkpt><trkpt lat="49.029515321368606" lon="1.7850387912259318"><ele>188.2</ele><time>2026-03-22T13:58:20Z</time></trkpt><trkpt lat="49.02960834284844" lon="1.7850492311976593"><ele>187.0</ele><time>2026-03-22T13:58:21Z</time></trkpt><trkpt lat="49.02968884048746" lon="1.7850644780029201"><ele>187.0</ele><time>2026-03-22T13:58:22Z</time></trkpt><trkpt lat="49.02976728379915" lon="1.7850773652267256"><ele>187.0</ele><time>2026-03-22T13:58:23Z</time></trkpt><trkpt lat="49.02985347727289" lon="1.7850650624824804"><ele>187.0</ele><time>2026-03-22T13:58:24Z</time></trkpt><trkpt lat="49.03001614651677" lon="1.7851006911808613"><ele>187.0</ele><time>2026-03-22T13:58:25Z</time></trkpt><trkpt lat="49.030163935054475" lon="1.7851332074473507"><ele>183.33333333333334</ele><time>2026-03-22T13:58:26Z</time></trkpt><trkpt lat="49.030304861076125" lon="1.7851645327081047"><ele>179.66666666666666</ele><time>2026-03-22T13:58:27Z</time></trkpt><trkpt lat="49.03047705465031" lon="1.7852025971784407"><ele>176.0</ele><time>2026-03-22T13:58:28Z</time></trkpt><trkpt lat="49.030694909879" lon="1.785250180527464"><ele>175.75</ele><time>2026-03-22T13:58:29Z</time></trkpt><trkpt lat="49.03080192588697" lon="1.785291061324586"><ele>175.5</ele><time>2026-03-22T13:58:30Z</time></trkpt><trkpt lat="49.03094145292968" lon="1.7853063343235853"><ele>175.25</ele><time>2026-03-22T13:58:31Z</time></trkpt><trkpt lat="49.0310698370358" lon="1.785333785969069"><ele>175.0</ele><time>2026-03-22T13:58:32Z</time></trkpt><trkpt lat="49.03118977144173" lon="1.785360470373877"><ele>174.5</ele><time>2026-03-22T13:58:33Z</time></trkpt><trkpt lat="49.03126857698229" lon="1.7853780039125433"><ele>174.0</ele><time>2026-03-22T13:58:35Z</time></trkpt><trkpt lat="49.031194164864466" lon="1.785482768091606"><ele>173.5</ele><time>2026-03-22T13:58:36Z</time></trkpt><trkpt lat="49.03129333015401" lon="1.7857574691034783"><ele>173.0</ele><time>2026-03-22T13:58:38Z</time></trkpt><trkpt lat="49.03133935397102" lon="1.7859627621073781"><ele>172.33333333333331</ele><time>2026-03-22T13:58:39Z</time></trkpt><trkpt lat="49.03143219136611" lon="1.7861000364895043"><ele>171.66666666666666</ele><time>2026-03-22T13:58:40Z</time></trkpt><trkpt lat="49.03150385756612" lon="1.7862849034814878"><ele>171.0</ele><time>2026-03-22T13:58:41Z</time></trkpt><trkpt lat="49.03160005086769" lon="1.7865396778381335"><ele>170.66666666666666</ele><time>2026-03-22T13:58:42Z</time></trkpt><trkpt lat="49.03169571391584" lon="1.7867958650838267"><ele>170.33333333333331</ele><time>2026-03-22T13:58:43Z</time></trkpt><trkpt lat="49.03178129870009" lon="1.78702506258416"><ele>170.0</ele><time>2026-03-22T13:58:44Z</time></trkpt><trkpt lat="49.03186490448402" lon="1.787249244772738"><ele>168.33333333333331</ele><time>2026-03-22T13:58:45Z</time></trkpt><trkpt lat="49.03193472338212" lon="1.787510905351929"><ele>166.66666666666666</ele><time>2026-03-22T13:58:46Z</time></trkpt><trkpt lat="49.03201589177473" lon="1.7877189906117916"><ele>165.0</ele><time>2026-03-22T13:58:47Z</time></trkpt><trkpt lat="49.03212868187628" lon="1.7879729862942173"><ele>164.25</ele><time>2026-03-22T13:58:48Z</time></trkpt><trkpt lat="49.03220046527257" lon="1.7881494197664767"><ele>163.5</ele><time>2026-03-22T13:58:49Z</time></trkpt><trkpt lat="49.03226480088847" lon="1.7883217567274126"><ele>162.75</ele><time>2026-03-22T13:58:50Z</time></trkpt><trkpt lat="49.032333353923605" lon="1.7885085526699793"><ele>162.0</ele><time>2026-03-22T13:58:51Z</time></trkpt><trkpt lat="49.03239005230484" lon="1.7886573179824177"><ele>161.25</ele><time>2026-03-22T13:58:52Z</time></trkpt><trkpt lat="49.03245661866312" lon="1.7888375850571192"><ele>160.5</ele><time>2026-03-22T13:58:53Z</time></trkpt><trkpt lat="49.03253140664132" lon="1.7890370785172982"><ele>159.75</ele><time>2026-03-22T13:58:54Z</time></trkpt><trkpt lat="49.032600849264114" lon="1.7892240858167299"><ele>159.0</ele><time>2026-03-22T13:58:55Z</time></trkpt><trkpt lat="49.03265303274725" lon="1.7893645980838715"><ele>158.0</ele><time>2026-03-22T13:58:56Z</time></trkpt><trkpt lat="49.03268914327404" lon="1.7894843975654897"><ele>157.0</ele><time>2026-03-22T13:58:57Z</time></trkpt><trkpt lat="49.03271821245842" lon="1.7895772993247165"><ele>156.0</ele><time>2026-03-22T13:58:58Z</time></trkpt><trkpt lat="49.03277985665018" lon="1.789710751489148"><ele>155.0</ele><time>2026-03-22T13:58:59Z</time></trkpt><trkpt lat="49.03284416194414" lon="1.789819291149978"><ele>154.0</ele><time>2026-03-22T13:59:00Z</time></trkpt><trkpt lat="49.03291544211818" lon="1.789981430021843"><ele>154.0</ele><time>2026-03-22T13:59:01Z</time></trkpt><trkpt lat="49.03298430454318" lon="1.7901207480775687"><ele>154.0</ele><time>2026-03-22T13:59:02Z</time></trkpt><trkpt lat="49.0330463769297" lon="1.7902524347760442"><ele>154.0</ele><time>2026-03-22T13:59:03Z</time></trkpt><trkpt lat="49.033108013859426" lon="1.79037624117683"><ele>154.0</ele><time>2026-03-22T13:59:04Z</time></trkpt><trkpt lat="49.03316537007779" lon="1.7904978062467556"><ele>154.0</ele><time>2026-03-22T13:59:05Z</time></trkpt><trkpt lat="49.03322972788968" lon="1.7906193739833918"><ele>152.25</ele><time>2026-03-22T13:59:06Z</time></trkpt><trkpt lat="49.03330700009666" lon="1.7907427121228061"><ele>150.5</ele><time>2026-03-22T13:59:07Z</time></trkpt><trkpt lat="49.033370042594214" lon="1.7909388520039364"><ele>148.75</ele><time>2026-03-22T13:59:08Z</time></trkpt><trkpt lat="49.03347505459713" lon="1.7911204193461328"><ele>147.0</ele><time>2026-03-22T13:59:09Z</time></trkpt><trkpt lat="49.033556301745335" lon="1.7912455183067724"><ele>145.0</ele><time>2026-03-22T13:59:10Z</time></trkpt><trkpt lat="49.033654281451696" lon="1.7913650501207612"><ele>143.0</ele><time>2026-03-22T13:59:11Z</time></trkpt><trkpt lat="49.03375990595515" lon="1.7914741959627143"><ele>141.0</ele><time>2026-03-22T13:59:12Z</time></trkpt><trkpt lat="49.03387013488753" lon="1.7915368243017142"><ele>139.0</ele><time>2026-03-22T13:59:13Z</time></trkpt><trkpt lat="49.03397328982647" lon="1.7916160189777373"><ele>139.0</ele><time>2026-03-22T13:59:14Z</time></trkpt><trkpt lat="49.03407262165158" lon="1.791714952590243"><ele>139.0</ele><time>2026-03-22T13:59:15Z</time></trkpt><trkpt lat="49.03416880698261" lon="1.7918107880832086"><ele>139.0</ele><time>2026-03-22T13:59:16Z</time></trkpt><trkpt lat="49.034263285838726" lon="1.7919028485868271"><ele>139.0</ele><time>2026-03-22T13:59:17Z</time></trkpt><trkpt lat="49.03434998763985" lon="1.7919906142279005"><ele>138.0</ele><time>2026-03-22T13:59:18Z</time></trkpt><trkpt lat="49.034428718337324" lon="1.7920947624463823"><ele>137.0</ele><time>2026-03-22T13:59:19Z</time></trkpt><trkpt lat="49.034488578865144" lon="1.7922390714966985"><ele>136.0</ele><time>2026-03-22T13:59:20Z</time></trkpt><trkpt lat="49.034546454970844" lon="1.792399728072017"><ele>135.0</ele><time>2026-03-22T13:59:21Z</time></trkpt><trkpt lat="49.03460922555269" lon="1.7925700745408168"><ele>134.75</ele><time>2026-03-22T13:59:22Z</time></trkpt><trkpt lat="49.03467150880923" lon="1.7927424888935994"><ele>134.5</ele><time>2026-03-22T13:59:23Z</time></trkpt><trkpt lat="49.03473271222958" lon="1.7929176036620686"><ele>134.25</ele><time>2026-03-22T13:59:24Z</time></trkpt><trkpt lat="49.03480124987606" lon="1.7931015787361904"><ele>134.0</ele><time>2026-03-22T13:59:25Z</time></trkpt><trkpt lat="49.03487632695594" lon="1.7932926436499885"><ele>134.0</ele><time>2026-03-22T13:59:26Z</time></trkpt><trkpt lat="49.034947104071826" lon="1.793473073774997"><ele>134.0</ele><time>2026-03-22T13:59:27Z</time></trkpt><trkpt lat="49.03501983299455" lon="1.793623897644192"><ele>134.0</ele><time>2026-03-22T13:59:28Z</time></trkpt><trkpt lat="49.035101283209904" lon="1.7937545768391971"><ele>134.0</ele><time>2026-03-22T13:59:29Z</time></trkpt><trkpt lat="49.03518790208014" lon="1.7938846161521307"><ele>134.0</ele><time>2026-03-22T13:59:30Z</time></trkpt><trkpt lat="49.03527440178815" lon="1.7940285135592537"><ele>134.0</ele><time>2026-03-22T13:59:31Z</time></trkpt><trkpt lat="49.03535860375223" lon="1.7941591326176511"><ele>134.0</ele><time>2026-03-22T13:59:32Z</time></trkpt><trkpt lat="49.03542616388148" lon="1.7942596510160462"><ele>134.0</ele><time>2026-03-22T13:59:33Z</time></trkpt><trkpt lat="49.035475596089874" lon="1.7943422716810837"><ele>134.0</ele><time>2026-03-22T13:59:34Z</time></trkpt><trkpt lat="49.0354845734794" lon="1.7944813631761782"><ele>133.6</ele><time>2026-03-22T13:59:36Z</time></trkpt><trkpt lat="49.035365236923276" lon="1.7945734635426147"><ele>133.2</ele><time>2026-03-22T13:59:38Z</time></trkpt><trkpt lat="49.03528111069247" lon="1.7946508724883858"><ele>132.79999999999998</ele><time>2026-03-22T13:59:39Z</time></trkpt><trkpt lat="49.03517223531012" lon="1.794653124161631"><ele>132.4</ele><time>2026-03-22T13:59:40Z</time></trkpt><trkpt lat="49.03509924229957" lon="1.7947271948128365"><ele>132.0</ele><time>2026-03-22T13:59:41Z</time></trkpt><trkpt lat="49.035019012628226" lon="1.7948085467485677"><ele>131.6</ele><time>2026-03-22T13:59:42Z</time></trkpt><trkpt lat="49.03493443806134" lon="1.7948942149900584"><ele>131.2</ele><time>2026-03-22T13:59:43Z</time></trkpt><trkpt lat="49.0348521403451" lon="1.7949775766859797"><ele>130.8</ele><time>2026-03-22T13:59:44Z</time></trkpt><trkpt lat="49.03477259167165" lon="1.7950581538054449"><ele>130.4</ele><time>2026-03-22T13:59:45Z</time></trkpt><trkpt lat="49.0346930080069" lon="1.7951386934885156"><ele>130.0</ele><time>2026-03-22T13:59:46Z</time></trkpt><trkpt lat="49.034615847675596" lon="1.7952165634553596"><ele>129.6</ele><time>2026-03-22T13:59:47Z</time></trkpt><trkpt lat="49.0345399718579" lon="1.7952931371007033"><ele>129.2</ele><time>2026-03-22T13:59:48Z</time></trkpt><trkpt lat="49.03446352998858" lon="1.7953703474951062"><ele>128.8</ele><time>2026-03-22T13:59:49Z</time></trkpt><trkpt lat="49.034376383869244" lon="1.7954588736840433"><ele>128.4</ele><time>2026-03-22T13:59:50Z</time></trkpt><trkpt lat="49.034272885424336" lon="1.7955640111180102"><ele>128.0</ele><time>2026-03-22T13:59:51Z</time></trkpt><trkpt lat="49.034153547072435" lon="1.7956852393694338"><ele>127.33333333333333</ele><time>2026-03-22T13:59:52Z</time></trkpt><trkpt lat="49.034019537322315" lon="1.7958213578464537"><ele>126.66666666666666</ele><time>2026-03-22T13:59:53Z</time></trkpt><trkpt lat="49.03387067660846" lon="1.7959725568442193"><ele>126.0</ele><time>2026-03-22T13:59:54Z</time></trkpt><trkpt lat="49.033734112761366" lon="1.796111266244006"><ele>125.66666666666666</ele><time>2026-03-22T13:59:55Z</time></trkpt><trkpt lat="49.033590038428834" lon="1.7962586623619963"><ele>125.33333333333333</ele><time>2026-03-22T13:59:56Z</time></trkpt><trkpt lat="49.033453981071396" lon="1.7963981721890792"><ele>125.0</ele><time>2026-03-22T13:59:57Z</time></trkpt><trkpt lat="49.03331151839508" lon="1.7965394647126764"><ele>125.33333333333333</ele><time>2026-03-22T13:59:58Z</time></trkpt><trkpt lat="49.03314879056629" lon="1.7966943398822564"><ele>125.66666666666666</ele><time>2026-03-22T13:59:59Z</time></trkpt><trkpt lat="49.03299862670022" lon="1.796860762828114"><ele>126.0</ele><time>2026-03-22T14:00:00Z</time></trkpt><trkpt lat="49.032877779235605" lon="1.797021589081022"><ele>125.33333333333334</ele><time>2026-03-22T14:00:01Z</time></trkpt><trkpt lat="49.03278250339815" lon="1.7972131633379274"><ele>124.66666666666667</ele><time>2026-03-22T14:00:02Z</time></trkpt><trkpt lat="49.03267512199326" lon="1.7974215547666108"><ele>124.0</ele><time>2026-03-22T14:00:03Z</time></trkpt><trkpt lat="49.032566036781034" lon="1.7976557108946043"><ele>123.0</ele><time>2026-03-22T14:00:04Z</time></trkpt><trkpt lat="49.032467555479954" lon="1.7978676871074482"><ele>122.0</ele><time>2026-03-22T14:00:05Z</time></trkpt><trkpt lat="49.03237817175975" lon="1.7980163492900443"><ele>121.0</ele><time>2026-03-22T14:00:06Z</time></trkpt><trkpt lat="49.032288458988816" lon="1.7981721528939398"><ele>120.0</ele><time>2026-03-22T14:00:07Z</time></trkpt><trkpt lat="49.03220966727255" lon="1.7982961316793296"><ele>120.0</ele><time>2026-03-22T14:00:08Z</time></trkpt><trkpt lat="49.03212199311083" lon="1.7984172917668841"><ele>120.0</ele><time>2026-03-22T14:00:09Z</time></trkpt><trkpt lat="49.032026658075665" lon="1.798549041911046"><ele>120.0</ele><time>2026-03-22T14:00:10Z</time></trkpt><trkpt lat="49.03193165564381" lon="1.7986803322904044"><ele>120.0</ele><time>2026-03-22T14:00:11Z</time></trkpt><trkpt lat="49.03183149348821" lon="1.7988187533997935"><ele>119.0</ele><time>2026-03-22T14:00:12Z</time></trkpt><trkpt lat="49.03191169381029" lon="1.7993226285595267"><ele>118.0</ele><time>2026-03-22T14:00:13Z</time></trkpt><trkpt lat="49.03182687587305" lon="1.799561580322553"><ele>117.33333333333334</ele><time>2026-03-22T14:00:14Z</time></trkpt><trkpt lat="49.03175095987441" lon="1.7998124917693394"><ele>116.66666666666666</ele><time>2026-03-22T14:00:15Z</time></trkpt><trkpt lat="49.031681767906285" lon="1.8000202638953353"><ele>116.0</ele><time>2026-03-22T14:00:16Z</time></trkpt><trkpt lat="49.031596175978095" lon="1.8001834441599693"><ele>115.0</ele><time>2026-03-22T14:00:17Z</time></trkpt><trkpt lat="49.031500623661216" lon="1.8003434411872652"><ele>114.0</ele><time>2026-03-22T14:00:18Z</time></trkpt><trkpt lat="49.03141555306715" lon="1.8005299221942879"><ele>113.0</ele><time>2026-03-22T14:00:19Z</time></trkpt><trkpt lat="49.03134649462802" lon="1.8007332067846151"><ele>112.0</ele><time>2026-03-22T14:00:20Z</time></trkpt><trkpt lat="49.03129251924682" lon="1.8009604217316724"><ele>111.66666666666667</ele><time>2026-03-22T14:00:21Z</time></trkpt><trkpt lat="49.03122293121828" lon="1.8012005004686809"><ele>111.33333333333334</ele><time>2026-03-22T14:00:22Z</time></trkpt><trkpt lat="49.03113458211417" lon="1.8014136908478353"><ele>111.0</ele><time>2026-03-22T14:00:23Z</time></trkpt><trkpt lat="49.03102469971274" lon="1.8016203258641326"><ele>111.0</ele><time>2026-03-22T14:00:24Z</time></trkpt><trkpt lat="49.03091503167632" lon="1.801812055579606"><ele>111.0</ele><time>2026-03-22T14:00:25Z</time></trkpt><trkpt lat="49.03082889469606" lon="1.8020027283931415"><ele>111.0</ele><time>2026-03-22T14:00:26Z</time></trkpt><trkpt lat="49.03075536281296" lon="1.8022328548486803"><ele>112.33333333333334</ele><time>2026-03-22T14:00:27Z</time></trkpt><trkpt lat="49.03068298409527" lon="1.802492679134423"><ele>113.66666666666667</ele><time>2026-03-22T14:00:28Z</time></trkpt><trkpt lat="49.03059979315541" lon="1.8027715961926178"><ele>115.0</ele><time>2026-03-22T14:00:29Z</time></trkpt><trkpt lat="49.03051650483888" lon="1.8030526510187144"><ele>116.0</ele><time>2026-03-22T14:00:30Z</time></trkpt><trkpt lat="49.03043764461397" lon="1.803359404644672"><ele>117.0</ele><time>2026-03-22T14:00:31Z</time></trkpt><trkpt lat="49.03037324695242" lon="1.8036719050928407"><ele>118.0</ele><time>2026-03-22T14:00:32Z</time></trkpt><trkpt lat="49.03030657204547" lon="1.8039644698808914"><ele>118.33333333333334</ele><time>2026-03-22T14:00:33Z</time></trkpt><trkpt lat="49.030243339388726" lon="1.8042333888759499"><ele>118.66666666666666</ele><time>2026-03-22T14:00:34Z</time></trkpt><trkpt lat="49.03018355355539" lon="1.8044752160094113"><ele>119.0</ele><time>2026-03-22T14:00:35Z</time></trkpt><trkpt lat="49.03012409538421" lon="1.8046851007207099"><ele>119.4</ele><time>2026-03-22T14:00:36Z</time></trkpt><trkpt lat="49.030068579942395" lon="1.8048709613246043"><ele>119.80000000000001</ele><time>2026-03-22T14:00:37Z</time></trkpt><trkpt lat="49.03002008478837" lon="1.8050338709937386"><ele>120.19999999999999</ele><time>2026-03-22T14:00:38Z</time></trkpt><trkpt lat="49.02996998867993" lon="1.8051668764040711"><ele>120.6</ele><time>2026-03-22T14:00:39Z</time></trkpt><trkpt lat="49.02990696155458" lon="1.805277537562795"><ele>121.0</ele><time>2026-03-22T14:00:40Z</time></trkpt><trkpt lat="49.02983372043095" lon="1.8053745411834228"><ele>121.25</ele><time>2026-03-22T14:00:41Z</time></trkpt><trkpt lat="49.0297473448293" lon="1.805491967821413"><ele>121.5</ele><time>2026-03-22T14:00:42Z</time></trkpt><trkpt lat="49.02965630700259" lon="1.8056333053085194"><ele>121.75</ele><time>2026-03-22T14:00:43Z</time></trkpt><trkpt lat="49.029564681601315" lon="1.805771257000783"><ele>122.0</ele><time>2026-03-22T14:00:44Z</time></trkpt><trkpt lat="49.029460146010074" lon="1.805935902962823"><ele>121.75</ele><time>2026-03-22T14:00:45Z</time></trkpt><trkpt lat="49.02934694964492" lon="1.8061070390226694"><ele>121.5</ele><time>2026-03-22T14:00:46Z</time></trkpt><trkpt lat="49.029236100080894" lon="1.8062594226392483"><ele>121.25</ele><time>2026-03-22T14:00:47Z</time></trkpt><trkpt lat="49.02912823223012" lon="1.806393345545606"><ele>121.0</ele><time>2026-03-22T14:00:48Z</time></trkpt><trkpt lat="49.02901087046625" lon="1.8065203494425095"><ele>121.66666666666667</ele><time>2026-03-22T14:00:49Z</time></trkpt><trkpt lat="49.02888624648504" lon="1.8066540663221338"><ele>122.33333333333334</ele><time>2026-03-22T14:00:50Z</time></trkpt><trkpt lat="49.02875012398812" lon="1.8067996939841675"><ele>123.0</ele><time>2026-03-22T14:00:51Z</time></trkpt><trkpt lat="49.02860670833841" lon="1.8069473797083457"><ele>123.0</ele><time>2026-03-22T14:00:52Z</time></trkpt><trkpt lat="49.028462323238834" lon="1.8071002817753794"><ele>123.0</ele><time>2026-03-22T14:00:53Z</time></trkpt><trkpt lat="49.02832845405302" lon="1.8072403816566784"><ele>123.0</ele><time>2026-03-22T14:00:54Z</time></trkpt><trkpt lat="49.02819596929452" lon="1.807384309553096"><ele>123.33333333333334</ele><time>2026-03-22T14:00:55Z</time></trkpt><trkpt lat="49.02806283476893" lon="1.807548663815137"><ele>123.66666666666667</ele><time>2026-03-22T14:00:56Z</time></trkpt><trkpt lat="49.027923713147736" lon="1.8077187875728593"><ele>124.0</ele><time>2026-03-22T14:00:57Z</time></trkpt><trkpt lat="49.02779891589091" lon="1.8078749091601136"><ele>124.0</ele><time>2026-03-22T14:00:58Z</time></trkpt><trkpt lat="49.02768520525944" lon="1.8080155904626642"><ele>124.0</ele><time>2026-03-22T14:00:59Z</time></trkpt><trkpt lat="49.02757099959761" lon="1.80815841798209"><ele>124.0</ele><time>2026-03-22T14:01:00Z</time></trkpt><trkpt lat="49.02745273507454" lon="1.8083070530575"><ele>124.0</ele><time>2026-03-22T14:01:01Z</time></trkpt><trkpt lat="49.02733023668837" lon="1.8084571806486471"><ele>124.0</ele><time>2026-03-22T14:01:02Z</time></trkpt><trkpt lat="49.027201795872195" lon="1.8086051117322681"><ele>124.0</ele><time>2026-03-22T14:01:03Z</time></trkpt><trkpt lat="49.027074346164106" lon="1.8087600059624194"><ele>124.0</ele><time>2026-03-22T14:01:04Z</time></trkpt><trkpt lat="49.02694708361697" lon="1.8089253996589347"><ele>124.0</ele><time>2026-03-22T14:01:05Z</time></trkpt><trkpt lat="49.02682193804957" lon="1.809115145825205"><ele>124.0</ele><time>2026-03-22T14:01:06Z</time></trkpt><trkpt lat="49.02670497863036" lon="1.8093291648905736"><ele>124.0</ele><time>2026-03-22T14:01:07Z</time></trkpt><trkpt lat="49.02660582933197" lon="1.8095635696448322"><ele>122.66666666666667</ele><time>2026-03-22T14:01:08Z</time></trkpt><trkpt lat="49.026508871640125" lon="1.8098228080040362"><ele>121.33333333333334</ele><time>2026-03-22T14:01:09Z</time></trkpt><trkpt lat="49.02641372520703" lon="1.8100624110516896"><ele>120.0</ele><time>2026-03-22T14:01:10Z</time></trkpt><trkpt lat="49.02632641077592" lon="1.810260671378927"><ele>119.5</ele><time>2026-03-22T14:01:11Z</time></trkpt><trkpt lat="49.02624269184092" lon="1.8104354673028686"><ele>119.0</ele><time>2026-03-22T14:01:12Z</time></trkpt><trkpt lat="49.0261652586284" lon="1.810597552175418"><ele>118.5</ele><time>2026-03-22T14:01:13Z</time></trkpt><trkpt lat="49.02610094477488" lon="1.8107331031792193"><ele>118.0</ele><time>2026-03-22T14:01:14Z</time></trkpt><trkpt lat="49.026043522910925" lon="1.8108523037582305"><ele>118.00000000000001</ele><time>2026-03-22T14:01:15Z</time></trkpt><trkpt lat="49.025992894645846" lon="1.810947363807"><ele>118.0</ele><time>2026-03-22T14:01:16Z</time></trkpt><trkpt lat="49.02595063694425" lon="1.811037062956394"><ele>118.0</ele><time>2026-03-22T14:01:17Z</time></trkpt><trkpt lat="49.02592256682276" lon="1.811131199121394"><ele>118.0</ele><time>2026-03-22T14:01:18Z</time></trkpt><trkpt lat="49.025904424437904" lon="1.8112658742770502"><ele>118.00000000000001</ele><time>2026-03-22T14:01:19Z</time></trkpt><trkpt lat="49.02589774352433" lon="1.8114522158655342"><ele>118.0</ele><time>2026-03-22T14:01:20Z</time></trkpt><trkpt lat="49.02584208023777" lon="1.8116386355794993"><ele>116.5</ele><time>2026-03-22T14:01:21Z</time></trkpt><trkpt lat="49.025815076923465" lon="1.8118457981144744"><ele>115.0</ele><time>2026-03-22T14:01:22Z</time></trkpt><trkpt lat="49.02577661057102" lon="1.8120707096526052"><ele>113.5</ele><time>2026-03-22T14:01:23Z</time></trkpt><trkpt lat="49.025737992316735" lon="1.8122870962408117"><ele>112.0</ele><time>2026-03-22T14:01:24Z</time></trkpt><trkpt lat="49.025699348628876" lon="1.8124985591376268"><ele>111.25</ele><time>2026-03-22T14:01:25Z</time></trkpt><trkpt lat="49.02566284714789" lon="1.8126940748574287"><ele>110.5</ele><time>2026-03-22T14:01:26Z</time></trkpt><trkpt lat="49.02563169838896" lon="1.8128903882226863"><ele>109.75</ele><time>2026-03-22T14:01:27Z</time></trkpt><trkpt lat="49.02560749867751" lon="1.8130775256693465"><ele>109.0</ele><time>2026-03-22T14:01:28Z</time></trkpt><trkpt lat="49.025589165324625" lon="1.8132416528524629"><ele>109.00000000000001</ele><time>2026-03-22T14:01:29Z</time></trkpt><trkpt lat="49.02557594559387" lon="1.813370595188984"><ele>109.0</ele><time>2026-03-22T14:01:30Z</time></trkpt><trkpt lat="49.02556745351759" lon="1.813470675602483"><ele>109.0</ele><time>2026-03-22T14:01:31Z</time></trkpt><trkpt lat="49.0254818627097" lon="1.8134186049133512"><ele>109.0</ele><time>2026-03-22T14:01:35Z</time></trkpt><trkpt lat="49.02542743116072" lon="1.8133068335059355"><ele>109.00000000000001</ele><time>2026-03-22T14:01:36Z</time></trkpt><trkpt lat="49.02537420032013" lon="1.81320787054268"><ele>109.0</ele><time>2026-03-22T14:01:37Z</time></trkpt><trkpt lat="49.02529373992046" lon="1.8131102132434092"><ele>109.0</ele><time>2026-03-22T14:01:38Z</time></trkpt><trkpt lat="49.02519227801773" lon="1.812996465592009"><ele>109.0</ele><time>2026-03-22T14:01:39Z</time></trkpt><trkpt lat="49.02507841742861" lon="1.8128985799551804"><ele>109.0</ele><time>2026-03-22T14:01:40Z</time></trkpt><trkpt lat="49.02496116070339" lon="1.8128074731577448"><ele>109.0</ele><time>2026-03-22T14:01:41Z</time></trkpt><trkpt lat="49.02485570163249" lon="1.8127670462824532"><ele>110.0</ele><time>2026-03-22T14:01:42Z</time></trkpt><trkpt lat="49.02474075185605" lon="1.8127854676972621"><ele>111.0</ele><time>2026-03-22T14:01:43Z</time></trkpt><trkpt lat="49.024626874419205" lon="1.8128529258175647"><ele>112.0</ele><time>2026-03-22T14:01:44Z</time></trkpt><trkpt lat="49.024492723482254" lon="1.8128994050874256"><ele>113.0</ele><time>2026-03-22T14:01:45Z</time></trkpt><trkpt lat="49.02438162648048" lon="1.8128678351002656"><ele>113.0</ele><time>2026-03-22T14:01:46Z</time></trkpt><trkpt lat="49.02423533730156" lon="1.8128357547406357"><ele>113.0</ele><time>2026-03-22T14:01:47Z</time></trkpt><trkpt lat="49.024083772024696" lon="1.8128292876967642"><ele>113.0</ele><time>2026-03-22T14:01:48Z</time></trkpt><trkpt lat="49.023932545064206" lon="1.8128251933381752"><ele>115.0</ele><time>2026-03-22T14:01:49Z</time></trkpt><trkpt lat="49.02377861964601" lon="1.8128067404779997"><ele>117.0</ele><time>2026-03-22T14:01:50Z</time></trkpt><trkpt lat="49.023616522447526" lon="1.8127845309647799"><ele>119.0</ele><time>2026-03-22T14:01:51Z</time></trkpt><trkpt lat="49.023446743064866" lon="1.8127671378055452"><ele>120.33333333333333</ele><time>2026-03-22T14:01:52Z</time></trkpt><trkpt lat="49.02327406435082" lon="1.812746423510873"><ele>121.66666666666666</ele><time>2026-03-22T14:01:53Z</time></trkpt><trkpt lat="49.0230984994565" lon="1.8127274801409254"><ele>123.0</ele><time>2026-03-22T14:01:54Z</time></trkpt><trkpt lat="49.022920144434906" lon="1.8127105616901387"><ele>123.0</ele><time>2026-03-22T14:01:55Z</time></trkpt><trkpt lat="49.022735805656225" lon="1.8126965273176607"><ele>123.0</ele><time>2026-03-22T14:01:56Z</time></trkpt><trkpt lat="49.02257925867463" lon="1.8126763950657436"><ele>123.0</ele><time>2026-03-22T14:01:57Z</time></trkpt><trkpt lat="49.02241722654205" lon="1.8126546696676151"><ele>123.66666666666666</ele><time>2026-03-22T14:01:58Z</time></trkpt><trkpt lat="49.022250451804304" lon="1.8126314213844934"><ele>124.33333333333333</ele><time>2026-03-22T14:01:59Z</time></trkpt><trkpt lat="49.022091056842335" lon="1.8126052651926523"><ele>125.0</ele><time>2026-03-22T14:02:00Z</time></trkpt><trkpt lat="49.02193581953171" lon="1.8125484564847234"><ele>125.0</ele><time>2026-03-22T14:02:01Z</time></trkpt><trkpt lat="49.02178975278602" lon="1.8124601920600998"><ele>125.0</ele><time>2026-03-22T14:02:02Z</time></trkpt><trkpt lat="49.02165853874238" lon="1.8123618747531778"><ele>125.0</ele><time>2026-03-22T14:02:03Z</time></trkpt><trkpt lat="49.02153744916483" lon="1.8122591280316955"><ele>125.0</ele><time>2026-03-22T14:02:04Z</time></trkpt><trkpt lat="49.02141688440587" lon="1.812160920703969"><ele>126.0</ele><time>2026-03-22T14:02:05Z</time></trkpt><trkpt lat="49.021289326936966" lon="1.8120933347063464"><ele>127.0</ele><time>2026-03-22T14:02:06Z</time></trkpt><trkpt lat="49.021138472427204" lon="1.8120529798559335"><ele>128.0</ele><time>2026-03-22T14:02:07Z</time></trkpt><trkpt lat="49.02097130522672" lon="1.8120210892956274"><ele>129.33333333333331</ele><time>2026-03-22T14:02:08Z</time></trkpt><trkpt lat="49.02080380138409" lon="1.8120001790757725"><ele>130.66666666666666</ele><time>2026-03-22T14:02:09Z</time></trkpt><trkpt lat="49.02064417981204" lon="1.8119855881692808"><ele>132.0</ele><time>2026-03-22T14:02:10Z</time></trkpt><trkpt lat="49.02048135715472" lon="1.8119788170600082"><ele>132.0</ele><time>2026-03-22T14:02:11Z</time></trkpt><trkpt lat="49.02030820085374" lon="1.8119809328767171"><ele>132.0</ele><time>2026-03-22T14:02:12Z</time></trkpt><trkpt lat="49.0201348083235" lon="1.8119834588606394"><ele>132.0</ele><time>2026-03-22T14:02:13Z</time></trkpt><trkpt lat="49.01997185754471" lon="1.8119811930567378"><ele>133.25</ele><time>2026-03-22T14:02:14Z</time></trkpt><trkpt lat="49.01982167623225" lon="1.8119808190745441"><ele>134.5</ele><time>2026-03-22T14:02:15Z</time></trkpt><trkpt lat="49.019688725226864" lon="1.8119841639128078"><ele>135.75</ele><time>2026-03-22T14:02:16Z</time></trkpt><trkpt lat="49.019570665513676" lon="1.8119887761504367"><ele>137.0</ele><time>2026-03-22T14:02:17Z</time></trkpt><trkpt lat="49.01946401734438" lon="1.811973758787984"><ele>137.0</ele><time>2026-03-22T14:02:18Z</time></trkpt><trkpt lat="49.01935842404752" lon="1.8119289230514375"><ele>137.0</ele><time>2026-03-22T14:02:19Z</time></trkpt><trkpt lat="49.01926663280133" lon="1.8118515503780654"><ele>137.0</ele><time>2026-03-22T14:02:20Z</time></trkpt><trkpt lat="49.0191797793853" lon="1.8117645087771663"><ele>137.0</ele><time>2026-03-22T14:02:21Z</time></trkpt><trkpt lat="49.01907385624018" lon="1.811745256586621"><ele>137.0</ele><time>2026-03-22T14:02:23Z</time></trkpt><trkpt lat="49.019027851822706" lon="1.81181591743702"><ele>138.0</ele><time>2026-03-22T14:02:24Z</time></trkpt><trkpt lat="49.018936946738634" lon="1.8118738901549967"><ele>139.0</ele><time>2026-03-22T14:02:25Z</time></trkpt><trkpt lat="49.018849268053835" lon="1.8119875396430933"><ele>140.0</ele><time>2026-03-22T14:02:26Z</time></trkpt><trkpt lat="49.01876869005347" lon="1.8121425479427806"><ele>141.0</ele><time>2026-03-22T14:02:27Z</time></trkpt><trkpt lat="49.01870781014044" lon="1.812310587567915"><ele>141.0</ele><time>2026-03-22T14:02:28Z</time></trkpt><trkpt lat="49.01870168802141" lon="1.812528897229681"><ele>141.0</ele><time>2026-03-22T14:02:29Z</time></trkpt><trkpt lat="49.01870542818699" lon="1.8127348519189925"><ele>141.0</ele><time>2026-03-22T14:02:30Z</time></trkpt><trkpt lat="49.01871373470342" lon="1.8129846689252234"><ele>141.0</ele><time>2026-03-22T14:02:31Z</time></trkpt><trkpt lat="49.01871864466875" lon="1.8132375237826184"><ele>139.33333333333334</ele><time>2026-03-22T14:02:32Z</time></trkpt><trkpt lat="49.018722327836926" lon="1.8135164738132619"><ele>137.66666666666669</ele><time>2026-03-22T14:02:33Z</time></trkpt><trkpt lat="49.018725230096244" lon="1.8137785360273333"><ele>136.0</ele><time>2026-03-22T14:02:34Z</time></trkpt><trkpt lat="49.01872766516545" lon="1.8140584590585809"><ele>136.0</ele><time>2026-03-22T14:02:35Z</time></trkpt><trkpt lat="49.01872774944464" lon="1.8143026663124033"><ele>136.0</ele><time>2026-03-22T14:02:36Z</time></trkpt><trkpt lat="49.01873127523358" lon="1.814527577195993"><ele>136.0</ele><time>2026-03-22T14:02:37Z</time></trkpt><trkpt lat="49.01875136362791" lon="1.8147330154421286"><ele>136.0</ele><time>2026-03-22T14:02:38Z</time></trkpt><trkpt lat="49.01881682844033" lon="1.8149062258425395"><ele>136.5</ele><time>2026-03-22T14:02:39Z</time></trkpt><trkpt lat="49.01892272286215" lon="1.8150096303477896"><ele>137.0</ele><time>2026-03-22T14:02:40Z</time></trkpt><trkpt lat="49.019020314935574" lon="1.8151585364314822"><ele>137.5</ele><time>2026-03-22T14:02:41Z</time></trkpt><trkpt lat="49.01915375807328" lon="1.815282293714648"><ele>138.0</ele><time>2026-03-22T14:02:42Z</time></trkpt><trkpt lat="49.01927484864658" lon="1.8154579946074165"><ele>134.66666666666666</ele><time>2026-03-22T14:02:43Z</time></trkpt><trkpt lat="49.019422788038035" lon="1.8156400069665706"><ele>131.33333333333331</ele><time>2026-03-22T14:02:44Z</time></trkpt><trkpt lat="49.01957558759385" lon="1.815829856392276"><ele>128.0</ele><time>2026-03-22T14:02:45Z</time></trkpt><trkpt lat="49.01973603991037" lon="1.8160294996545874"><ele>128.0</ele><time>2026-03-22T14:02:46Z</time></trkpt><trkpt lat="49.01990217823508" lon="1.816237704778931"><ele>128.0</ele><time>2026-03-22T14:02:47Z</time></trkpt><trkpt lat="49.0200618264556" lon="1.8164066652203537"><ele>128.0</ele><time>2026-03-22T14:02:48Z</time></trkpt><trkpt lat="49.02020412553172" lon="1.8165867990789604"><ele>125.0</ele><time>2026-03-22T14:02:49Z</time></trkpt><trkpt lat="49.02033810617268" lon="1.816750450023655"><ele>122.0</ele><time>2026-03-22T14:02:50Z</time></trkpt><trkpt lat="49.02047036723677" lon="1.8168958336706935"><ele>119.0</ele><time>2026-03-22T14:02:51Z</time></trkpt><trkpt lat="49.02063159236942" lon="1.817011656309421"><ele>119.0</ele><time>2026-03-22T14:02:52Z</time></trkpt><trkpt lat="49.02080462856437" lon="1.8170952931723217"><ele>119.0</ele><time>2026-03-22T14:02:53Z</time></trkpt><trkpt lat="49.020963573535816" lon="1.8171538865432046"><ele>119.0</ele><time>2026-03-22T14:02:54Z</time></trkpt><trkpt lat="49.021101556721234" lon="1.8172215115508514"><ele>118.0</ele><time>2026-03-22T14:02:55Z</time></trkpt><trkpt lat="49.02123480892277" lon="1.817286852597601"><ele>117.0</ele><time>2026-03-22T14:02:56Z</time></trkpt><trkpt lat="49.021351695542414" lon="1.817347976386482"><ele>116.0</ele><time>2026-03-22T14:02:57Z</time></trkpt><trkpt lat="49.02144864566998" lon="1.8174119697591686"><ele>115.0</ele><time>2026-03-22T14:02:58Z</time></trkpt><trkpt lat="49.02151309263206" lon="1.8174973095404838"><ele>115.0</ele><time>2026-03-22T14:02:59Z</time></trkpt><trkpt lat="49.02153263616154" lon="1.8176240955834915"><ele>115.0</ele><time>2026-03-22T14:03:00Z</time></trkpt><trkpt lat="49.02150204377889" lon="1.817743927544007"><ele>115.0</ele><time>2026-03-22T14:03:01Z</time></trkpt><trkpt lat="49.02148426511368" lon="1.817907663726378"><ele>115.0</ele><time>2026-03-22T14:03:02Z</time></trkpt><trkpt lat="49.02149089183185" lon="1.81808374676995"><ele>115.0</ele><time>2026-03-22T14:03:03Z</time></trkpt><trkpt lat="49.02150630917562" lon="1.8182313961148813"><ele>115.0</ele><time>2026-03-22T14:03:04Z</time></trkpt><trkpt lat="49.02154391144687" lon="1.8183634244578357"><ele>115.0</ele><time>2026-03-22T14:03:05Z</time></trkpt><trkpt lat="49.02157797464605" lon="1.8184571521000077"><ele>115.0</ele><time>2026-03-22T14:03:06Z</time></trkpt><trkpt lat="49.021617651128636" lon="1.8185521263134565"><ele>115.0</ele><time>2026-03-22T14:03:07Z</time></trkpt><trkpt lat="49.02170999029208" lon="1.8186428209725574"><ele>115.0</ele><time>2026-03-22T14:03:08Z</time></trkpt><trkpt lat="49.02180127209981" lon="1.8187530728033943"><ele>115.0</ele><time>2026-03-22T14:03:09Z</time></trkpt><trkpt lat="49.021927944585656" lon="1.8187415836277583"><ele>115.0</ele><time>2026-03-22T14:03:10Z</time></trkpt><trkpt lat="49.02204462132643" lon="1.8188252389408026"><ele>115.0</ele><time>2026-03-22T14:03:11Z</time></trkpt><trkpt lat="49.022139101009216" lon="1.8189315150731187"><ele>115.0</ele><time>2026-03-22T14:03:12Z</time></trkpt><trkpt lat="49.022186107722014" lon="1.8191220954564018"><ele>116.0</ele><time>2026-03-22T14:03:13Z</time></trkpt><trkpt lat="49.022251509978865" lon="1.8193318828767515"><ele>117.0</ele><time>2026-03-22T14:03:14Z</time></trkpt><trkpt lat="49.022296534435846" lon="1.8195613820344807"><ele>118.0</ele><time>2026-03-22T14:03:15Z</time></trkpt><trkpt lat="49.022352954273394" lon="1.8198115356851192"><ele>118.0</ele><time>2026-03-22T14:03:16Z</time></trkpt><trkpt lat="49.022423936262676" lon="1.820095760003999"><ele>118.0</ele><time>2026-03-22T14:03:17Z</time></trkpt><trkpt lat="49.02248458229535" lon="1.8203782577741827"><ele>118.0</ele><time>2026-03-22T14:03:18Z</time></trkpt><trkpt lat="49.02251816247968" lon="1.8206328343855964"><ele>118.0</ele><time>2026-03-22T14:03:19Z</time></trkpt><trkpt lat="49.02254089072394" lon="1.82088331840849"><ele>118.0</ele><time>2026-03-22T14:03:20Z</time></trkpt><trkpt lat="49.02255603994897" lon="1.8211494439996048"><ele>118.0</ele><time>2026-03-22T14:03:21Z</time></trkpt><trkpt lat="49.02255722855493" lon="1.8214323953237712"><ele>118.0</ele><time>2026-03-22T14:03:22Z</time></trkpt><trkpt lat="49.02255826053855" lon="1.821725363052135"><ele>118.0</ele><time>2026-03-22T14:03:23Z</time></trkpt><trkpt lat="49.02256350804135" lon="1.8220388948866642"><ele>118.0</ele><time>2026-03-22T14:03:24Z</time></trkpt><trkpt lat="49.022582910701836" lon="1.8223639671081344"><ele>118.66666666666667</ele><time>2026-03-22T14:03:25Z</time></trkpt><trkpt lat="49.02258950473806" lon="1.8226808240604848"><ele>119.33333333333334</ele><time>2026-03-22T14:03:26Z</time></trkpt><trkpt lat="49.022585792081465" lon="1.8229603517523958"><ele>120.0</ele><time>2026-03-22T14:03:27Z</time></trkpt><trkpt lat="49.0226392324968" lon="1.8232063942033356"><ele>120.0</ele><time>2026-03-22T14:03:28Z</time></trkpt><trkpt lat="49.022614949635816" lon="1.8234619005912793"><ele>120.0</ele><time>2026-03-22T14:03:29Z</time></trkpt><trkpt lat="49.02261485790282" lon="1.8237027708957885"><ele>120.0</ele><time>2026-03-22T14:03:30Z</time></trkpt><trkpt lat="49.0226000445793" lon="1.8239674357446576"><ele>120.0</ele><time>2026-03-22T14:03:31Z</time></trkpt><trkpt lat="49.02253831749735" lon="1.8242218105787316"><ele>120.0</ele><time>2026-03-22T14:03:32Z</time></trkpt><trkpt lat="49.02253179824029" lon="1.824455048986771"><ele>120.0</ele><time>2026-03-22T14:03:33Z</time></trkpt><trkpt lat="49.022565307075794" lon="1.8247030026688869"><ele>120.0</ele><time>2026-03-22T14:03:34Z</time></trkpt><trkpt lat="49.02255300119742" lon="1.8249414999502056"><ele>120.0</ele><time>2026-03-22T14:03:35Z</time></trkpt><trkpt lat="49.022541488049235" lon="1.825140800252273"><ele>120.0</ele><time>2026-03-22T14:03:36Z</time></trkpt><trkpt lat="49.02254099057695" lon="1.825366342239032"><ele>120.0</ele><time>2026-03-22T14:03:37Z</time></trkpt><trkpt lat="49.02253826525962" lon="1.8255981682916107"><ele>120.0</ele><time>2026-03-22T14:03:38Z</time></trkpt><trkpt lat="49.02252882805688" lon="1.825820087485936"><ele>120.0</ele><time>2026-03-22T14:03:39Z</time></trkpt><trkpt lat="49.02251943925534" lon="1.8259992265389309"><ele>120.0</ele><time>2026-03-22T14:03:40Z</time></trkpt><trkpt lat="49.0225111499954" lon="1.8261332716814274"><ele>120.0</ele><time>2026-03-22T14:03:41Z</time></trkpt><trkpt lat="49.0225090954261" lon="1.8262919812984149"><ele>120.0</ele><time>2026-03-22T14:03:42Z</time></trkpt><trkpt lat="49.022514124552295" lon="1.8264911612861463"><ele>120.0</ele><time>2026-03-22T14:03:43Z</time></trkpt><trkpt lat="49.022512485349516" lon="1.8267131972015684"><ele>120.0</ele><time>2026-03-22T14:03:44Z</time></trkpt><trkpt lat="49.022504617824254" lon="1.8269714100353154"><ele>120.0</ele><time>2026-03-22T14:03:45Z</time></trkpt><trkpt lat="49.0224951927965" lon="1.8272381225952639"><ele>119.33333333333334</ele><time>2026-03-22T14:03:46Z</time></trkpt><trkpt lat="49.022486284124945" lon="1.8274881242098564"><ele>118.66666666666667</ele><time>2026-03-22T14:03:47Z</time></trkpt><trkpt lat="49.0224754145806" lon="1.8277218054629012"><ele>118.0</ele><time>2026-03-22T14:03:48Z</time></trkpt><trkpt lat="49.022463424531" lon="1.8279549936664987"><ele>118.4</ele><time>2026-03-22T14:03:49Z</time></trkpt><trkpt lat="49.02245182109807" lon="1.8281515484905795"><ele>118.80000000000001</ele><time>2026-03-22T14:03:50Z</time></trkpt><trkpt lat="49.022432543688" lon="1.8283233598223854"><ele>119.2</ele><time>2026-03-22T14:03:51Z</time></trkpt><trkpt lat="49.0224126349197" lon="1.8284657920085166"><ele>119.6</ele><time>2026-03-22T14:03:52Z</time></trkpt><trkpt lat="49.02243003864641" lon="1.8286115930307332"><ele>120.0</ele><time>2026-03-22T14:03:54Z</time></trkpt><trkpt lat="49.022593377425316" lon="1.8286106986920858"><ele>120.75</ele><time>2026-03-22T14:03:56Z</time></trkpt><trkpt lat="49.02273096661215" lon="1.828604654709763"><ele>121.5</ele><time>2026-03-22T14:03:57Z</time></trkpt><trkpt lat="49.02286802566573" lon="1.8286266145960028"><ele>122.25</ele><time>2026-03-22T14:03:58Z</time></trkpt><trkpt lat="49.02301906958101" lon="1.8286332470360975"><ele>123.0</ele><time>2026-03-22T14:03:59Z</time></trkpt><trkpt lat="49.02318744116448" lon="1.8286189560583201"><ele>124.0</ele><time>2026-03-22T14:04:00Z</time></trkpt><trkpt lat="49.02336164204429" lon="1.8285936015106878"><ele>125.0</ele><time>2026-03-22T14:04:01Z</time></trkpt><trkpt lat="49.023508356946316" lon="1.8285748861655424"><ele>126.0</ele><time>2026-03-22T14:04:02Z</time></trkpt><trkpt lat="49.02363297971257" lon="1.8285731821938351"><ele>127.0</ele><time>2026-03-22T14:04:03Z</time></trkpt><trkpt lat="49.02376308325534" lon="1.8286100237570158"><ele>127.0</ele><time>2026-03-22T14:04:04Z</time></trkpt><trkpt lat="49.02390915882045" lon="1.8286940258332929"><ele>127.0</ele><time>2026-03-22T14:04:05Z</time></trkpt><trkpt lat="49.02404820931467" lon="1.8287898098860487"><ele>127.0</ele><time>2026-03-22T14:04:06Z</time></trkpt><trkpt lat="49.02416609780378" lon="1.8288721504597565"><ele>127.0</ele><time>2026-03-22T14:04:07Z</time></trkpt><trkpt lat="49.02428096242176" lon="1.828943746617063"><ele>124.5</ele><time>2026-03-22T14:04:08Z</time></trkpt><trkpt lat="49.024401777646986" lon="1.8290070606408801"><ele>122.0</ele><time>2026-03-22T14:04:09Z</time></trkpt><trkpt lat="49.02453519028628" lon="1.8290837113829665"><ele>119.5</ele><time>2026-03-22T14:04:10Z</time></trkpt><trkpt lat="49.02468541829899" lon="1.8291767990897636"><ele>117.0</ele><time>2026-03-22T14:04:11Z</time></trkpt><trkpt lat="49.02485935310128" lon="1.8292784274713634"><ele>112.33333333333334</ele><time>2026-03-22T14:04:12Z</time></trkpt><trkpt lat="49.02504002040237" lon="1.8293546584140272"><ele>107.66666666666667</ele><time>2026-03-22T14:04:13Z</time></trkpt><trkpt lat="49.02522226508665" lon="1.8294171111927746"><ele>103.0</ele><time>2026-03-22T14:04:14Z</time></trkpt><trkpt lat="49.0254021933377" lon="1.8294798533884915"><ele>103.0</ele><time>2026-03-22T14:04:15Z</time></trkpt><trkpt lat="49.025552488730135" lon="1.829532602216657"><ele>103.0</ele><time>2026-03-22T14:04:16Z</time></trkpt><trkpt lat="49.02568660466275" lon="1.8295971610751434"><ele>103.0</ele><time>2026-03-22T14:04:17Z</time></trkpt><trkpt lat="49.025818889469726" lon="1.8296144492169015"><ele>103.0</ele><time>2026-03-22T14:04:18Z</time></trkpt><trkpt lat="49.025960252826266" lon="1.8296174833958223"><ele>102.0</ele><time>2026-03-22T14:04:19Z</time></trkpt><trkpt lat="49.02608455251284" lon="1.8295652591004643"><ele>101.0</ele><time>2026-03-22T14:04:20Z</time></trkpt><trkpt lat="49.026212974823075" lon="1.829572845357872"><ele>100.0</ele><time>2026-03-22T14:04:21Z</time></trkpt><trkpt lat="49.02634808354962" lon="1.8296062279459164"><ele>99.0</ele><time>2026-03-22T14:04:22Z</time></trkpt><trkpt lat="49.02650287714256" lon="1.8296241459237097"><ele>98.66666666666666</ele><time>2026-03-22T14:04:23Z</time></trkpt><trkpt lat="49.02665678096771" lon="1.829668934484247"><ele>98.33333333333333</ele><time>2026-03-22T14:04:24Z</time></trkpt><trkpt lat="49.02682155591616" lon="1.8297501213697867"><ele>98.0</ele><time>2026-03-22T14:04:25Z</time></trkpt><trkpt lat="49.026981019773196" lon="1.829841172755769"><ele>98.0</ele><time>2026-03-22T14:04:26Z</time></trkpt><trkpt lat="49.027131037323926" lon="1.8299055867908902"><ele>98.0</ele><time>2026-03-22T14:04:27Z</time></trkpt><trkpt lat="49.02727325782991" lon="1.8299594307334563"><ele>98.0</ele><time>2026-03-22T14:04:28Z</time></trkpt><trkpt lat="49.027401494779724" lon="1.8300141763594973"><ele>98.0</ele><time>2026-03-22T14:04:29Z</time></trkpt><trkpt lat="49.027515419894016" lon="1.8300807070136826"><ele>96.5</ele><time>2026-03-22T14:04:30Z</time></trkpt><trkpt lat="49.0276258211548" lon="1.8301355485290223"><ele>95.0</ele><time>2026-03-22T14:04:31Z</time></trkpt><trkpt lat="49.02773772992772" lon="1.8301836108983003"><ele>93.5</ele><time>2026-03-22T14:04:32Z</time></trkpt><trkpt lat="49.027856949825335" lon="1.8302390790383494"><ele>92.0</ele><time>2026-03-22T14:04:33Z</time></trkpt><trkpt lat="49.02797043532888" lon="1.8302936196999777"><ele>91.0</ele><time>2026-03-22T14:04:34Z</time></trkpt><trkpt lat="49.02808475223998" lon="1.8303485679976923"><ele>90.0</ele><time>2026-03-22T14:04:35Z</time></trkpt><trkpt lat="49.02819756827259" lon="1.8304203716163079"><ele>89.0</ele><time>2026-03-22T14:04:36Z</time></trkpt><trkpt lat="49.02830681099114" lon="1.8304803660738955"><ele>88.0</ele><time>2026-03-22T14:04:37Z</time></trkpt><trkpt lat="49.02843600589828" lon="1.830515986361578"><ele>86.5</ele><time>2026-03-22T14:04:38Z</time></trkpt><trkpt lat="49.02859053898864" lon="1.8305589451705369"><ele>85.0</ele><time>2026-03-22T14:04:39Z</time></trkpt><trkpt lat="49.028726212589724" lon="1.8305869497857004"><ele>83.5</ele><time>2026-03-22T14:04:40Z</time></trkpt><trkpt lat="49.02886374197068" lon="1.830611668520139"><ele>82.0</ele><time>2026-03-22T14:04:41.001Z</time></trkpt><trkpt lat="49.02900228939836" lon="1.8306348733052935"><ele>82.0</ele><time>2026-03-22T14:04:42.001Z</time></trkpt><trkpt lat="49.02913140902432" lon="1.8306556785383958"><ele>82.0</ele><time>2026-03-22T14:04:43.001Z</time></trkpt><trkpt lat="49.02927918436013" lon="1.83068097661978"><ele>82.0</ele><time>2026-03-22T14:04:44.001Z</time></trkpt><trkpt lat="49.02943494178192" lon="1.830720048145286"><ele>82.0</ele><time>2026-03-22T14:04:45.001Z</time></trkpt><trkpt lat="49.02956021067089" lon="1.830753252506547"><ele>80.0</ele><time>2026-03-22T14:04:46.001Z</time></trkpt><trkpt lat="49.02967003183877" lon="1.8307823698829804"><ele>78.0</ele><time>2026-03-22T14:04:47.001Z</time></trkpt><trkpt lat="49.029752390478784" lon="1.8308027358279582"><ele>76.0</ele><time>2026-03-22T14:04:48.001Z</time></trkpt><trkpt lat="49.029815325873784" lon="1.830820479105614"><ele>74.0</ele><time>2026-03-22T14:04:49.001Z</time></trkpt><trkpt lat="49.029805962969434" lon="1.8309681944828917"><ele>72.0</ele><time>2026-03-22T14:04:52Z</time></trkpt><trkpt lat="49.02976368552279" lon="1.8310822776269098"><ele>70.0</ele><time>2026-03-22T14:04:53Z</time></trkpt><trkpt lat="49.02971076933408" lon="1.831241679007529"><ele>68.66666666666666</ele><time>2026-03-22T14:04:54Z</time></trkpt><trkpt lat="49.02963231118462" lon="1.8314463158560832"><ele>67.33333333333333</ele><time>2026-03-22T14:04:55Z</time></trkpt><trkpt lat="49.029563662711254" lon="1.8316711056717485"><ele>66.0</ele><time>2026-03-22T14:04:56Z</time></trkpt><trkpt lat="49.02950667627322" lon="1.831852434055715"><ele>64.5</ele><time>2026-03-22T14:04:57Z</time></trkpt><trkpt lat="49.029458618763975" lon="1.8320232996152988"><ele>63.0</ele><time>2026-03-22T14:04:58Z</time></trkpt><trkpt lat="49.02941897583709" lon="1.8321965648495702"><ele>61.5</ele><time>2026-03-22T14:04:59Z</time></trkpt><trkpt lat="49.02938253856482" lon="1.8323591402646267"><ele>60.0</ele><time>2026-03-22T14:05:00Z</time></trkpt><trkpt lat="49.029346242383255" lon="1.8325085993167909"><ele>59.8</ele><time>2026-03-22T14:05:01Z</time></trkpt><trkpt lat="49.02929598956483" lon="1.832657197049995"><ele>59.6</ele><time>2026-03-22T14:05:02Z</time></trkpt><trkpt lat="49.029257211871155" lon="1.8327868639565712"><ele>59.400000000000006</ele><time>2026-03-22T14:05:03Z</time></trkpt><trkpt lat="49.02922559966359" lon="1.8329152950237488"><ele>59.2</ele><time>2026-03-22T14:05:04Z</time></trkpt><trkpt lat="49.029187757002035" lon="1.8330421771875407"><ele>59.0</ele><time>2026-03-22T14:05:05Z</time></trkpt><trkpt lat="49.02914755618512" lon="1.8332142303355436"><ele>59.333333333333336</ele><time>2026-03-22T14:05:07Z</time></trkpt><trkpt lat="49.02910626943492" lon="1.8333640171523744"><ele>59.66666666666667</ele><time>2026-03-22T14:05:09Z</time></trkpt><trkpt lat="49.02906664467183" lon="1.8334826174256216"><ele>60.0</ele><time>2026-03-22T14:05:11Z</time></trkpt><trkpt lat="49.029035010299104" lon="1.833579295069086"><ele>60.33333333333333</ele><time>2026-03-22T14:05:13Z</time></trkpt><trkpt lat="49.029002638447565" lon="1.8336724642060354"><ele>60.666666666666664</ele><time>2026-03-22T14:05:15Z</time></trkpt><trkpt lat="49.02897485622791" lon="1.8337707851829792"><ele>61.0</ele><time>2026-03-22T14:05:17Z</time></trkpt><trkpt lat="49.02895014376077" lon="1.8338592501708406"><ele>60.99999999999999</ele><time>2026-03-22T14:05:19Z</time></trkpt><trkpt lat="49.02892229647109" lon="1.8339678995445918"><ele>61.0</ele><time>2026-03-22T14:05:22Z</time></trkpt><trkpt lat="49.028892018053874" lon="1.8340701277777227"><ele>61.0</ele><time>2026-03-22T14:05:26Z</time></trkpt><trkpt lat="49.028853697562965" lon="1.8341953761518177"><ele>61.0</ele><time>2026-03-22T14:05:29Z</time></trkpt><trkpt lat="49.028812113614734" lon="1.8343157102672867"><ele>60.99999999999999</ele><time>2026-03-22T14:05:31Z</time></trkpt><trkpt lat="49.02878186314534" lon="1.834414602727714"><ele>61.0</ele><time>2026-03-22T14:05:32Z</time></trkpt><trkpt lat="49.0287368770491" lon="1.834522778095569"><ele>61.599999999999994</ele><time>2026-03-22T14:05:33Z</time></trkpt><trkpt lat="49.02869658268927" lon="1.8346465184102143"><ele>62.199999999999996</ele><time>2026-03-22T14:05:34Z</time></trkpt><trkpt lat="49.02864793879735" lon="1.8348040785117883"><ele>62.800000000000004</ele><time>2026-03-22T14:05:35Z</time></trkpt><trkpt lat="49.02861492943076" lon="1.8349440329149906"><ele>63.400000000000006</ele><time>2026-03-22T14:05:36Z</time></trkpt><trkpt lat="49.028592562464944" lon="1.8350712915861236"><ele>64.0</ele><time>2026-03-22T14:05:37Z</time></trkpt><trkpt lat="49.02856293952492" lon="1.83518610437369"><ele>64.33333333333333</ele><time>2026-03-22T14:05:38Z</time></trkpt><trkpt lat="49.028520392029804" lon="1.8352871454354742"><ele>64.66666666666666</ele><time>2026-03-22T14:05:39Z</time></trkpt><trkpt lat="49.02848397001244" lon="1.835374140229754"><ele>65.0</ele><time>2026-03-22T14:05:40Z</time></trkpt><trkpt lat="49.0284764682961" lon="1.8354947190661015"><ele>65.33333333333333</ele><time>2026-03-22T14:05:41Z</time></trkpt><trkpt lat="49.028463182702325" lon="1.8356398921763024"><ele>65.66666666666667</ele><time>2026-03-22T14:05:42Z</time></trkpt><trkpt lat="49.028447206458225" lon="1.835763302836058"><ele>66.0</ele><time>2026-03-22T14:05:43Z</time></trkpt><trkpt lat="49.02843042496018" lon="1.8358605088992368"><ele>66.5</ele><time>2026-03-22T14:05:44Z</time></trkpt><trkpt lat="49.028418808752015" lon="1.8359859387266177"><ele>67.0</ele><time>2026-03-22T14:05:46Z</time></trkpt><trkpt lat="49.028331652102814" lon="1.8359998320432702"><ele>67.5</ele><time>2026-03-22T14:05:48Z</time></trkpt><trkpt lat="49.02824632422352" lon="1.836004967379392"><ele>68.0</ele><time>2026-03-22T14:05:49Z</time></trkpt><trkpt lat="49.02814630086431" lon="1.8360159843644677"><ele>68.5</ele><time>2026-03-22T14:05:50Z</time></trkpt><trkpt lat="49.02805528552627" lon="1.836038716522018"><ele>69.0</ele><time>2026-03-22T14:05:51Z</time></trkpt><trkpt lat="49.02796459251671" lon="1.8360498627112027"><ele>71.83333333333333</ele><time>2026-03-22T14:05:52Z</time></trkpt><trkpt lat="49.02785980749836" lon="1.8360774901620232"><ele>74.66666666666667</ele><time>2026-03-22T14:05:53Z</time></trkpt><trkpt lat="49.02776827855264" lon="1.8361109588548348"><ele>77.5</ele><time>2026-03-22T14:05:54Z</time></trkpt><trkpt lat="49.02767939689682" lon="1.8361397775278965"><ele>80.33333333333334</ele><time>2026-03-22T14:05:55Z</time></trkpt><trkpt lat="49.02759774461287" lon="1.8361674313620064"><ele>83.16666666666667</ele><time>2026-03-22T14:05:56Z</time></trkpt><trkpt lat="49.02753262837447" lon="1.8361791746615552"><ele>86.0</ele><time>2026-03-22T14:05:57Z</time></trkpt><trkpt lat="49.02746599201211" lon="1.836221184393331"><ele>85.16666666666667</ele><time>2026-03-22T14:05:58Z</time></trkpt><trkpt lat="49.02741962073923" lon="1.836322065528104"><ele>84.33333333333334</ele><time>2026-03-22T14:05:59Z</time></trkpt><trkpt lat="49.02740838018134" lon="1.8364556949116515"><ele>83.5</ele><time>2026-03-22T14:06:00Z</time></trkpt><trkpt lat="49.027418111546815" lon="1.8365898212847316"><ele>82.66666666666667</ele><time>2026-03-22T14:06:01Z</time></trkpt><trkpt lat="49.027453561615324" lon="1.836712588466885"><ele>81.83333333333333</ele><time>2026-03-22T14:06:02Z</time></trkpt><trkpt lat="49.0274987199707" lon="1.8368267686533761"><ele>81.0</ele><time>2026-03-22T14:06:03Z</time></trkpt><trkpt lat="49.02751200206298" lon="1.8369642949011469"><ele>81.0</ele><time>2026-03-22T14:06:04Z</time></trkpt><trkpt lat="49.027536622819774" lon="1.8370829193756655"><ele>81.0</ele><time>2026-03-22T14:06:05Z</time></trkpt><trkpt lat="49.02753685272486" lon="1.8372040082278194"><ele>81.0</ele><time>2026-03-22T14:06:06Z</time></trkpt><trkpt lat="49.02749943816392" lon="1.8373385319205109"><ele>81.0</ele><time>2026-03-22T14:06:07Z</time></trkpt><trkpt lat="49.02744289529979" lon="1.8374739894089267"><ele>81.0</ele><time>2026-03-22T14:06:08Z</time></trkpt><trkpt lat="49.02737686213613" lon="1.83760023024438"><ele>84.25</ele><time>2026-03-22T14:06:09Z</time></trkpt><trkpt lat="49.0273027741983" lon="1.8377244841634557"><ele>87.5</ele><time>2026-03-22T14:06:10Z</time></trkpt><trkpt lat="49.02720773800566" lon="1.837846159539565"><ele>90.75</ele><time>2026-03-22T14:06:11Z</time></trkpt><trkpt lat="49.027103343375124" lon="1.8379676243844685"><ele>94.0</ele><time>2026-03-22T14:06:12Z</time></trkpt><trkpt lat="49.02699868480869" lon="1.8380960125602466"><ele>94.0</ele><time>2026-03-22T14:06:13Z</time></trkpt><trkpt lat="49.0268927337525" lon="1.8382241113198703"><ele>94.0</ele><time>2026-03-22T14:06:14Z</time></trkpt><trkpt lat="49.02680192504526" lon="1.83833404746793"><ele>94.0</ele><time>2026-03-22T14:06:15Z</time></trkpt><trkpt lat="49.026723740516076" lon="1.8384312246383263"><ele>94.0</ele><time>2026-03-22T14:06:16Z</time></trkpt><trkpt lat="49.02664849052312" lon="1.8384779259593294"><ele>94.0</ele><time>2026-03-22T14:06:17Z</time></trkpt><trkpt lat="49.02656142644927" lon="1.8384836035827177"><ele>96.0</ele><time>2026-03-22T14:06:18Z</time></trkpt><trkpt lat="49.02646450509725" lon="1.838482882850918"><ele>98.0</ele><time>2026-03-22T14:06:19Z</time></trkpt><trkpt lat="49.02635992832688" lon="1.8384521513073115"><ele>100.0</ele><time>2026-03-22T14:06:20Z</time></trkpt><trkpt lat="49.02625237521615" lon="1.8384601068344693"><ele>102.0</ele><time>2026-03-22T14:06:21Z</time></trkpt><trkpt lat="49.026134574542155" lon="1.8384628150082332"><ele>104.0</ele><time>2026-03-22T14:06:22Z</time></trkpt><trkpt lat="49.02601166489212" lon="1.8384445086466858"><ele>104.66666666666666</ele><time>2026-03-22T14:06:23Z</time></trkpt><trkpt lat="49.02586527543235" lon="1.8384246133784616"><ele>105.33333333333334</ele><time>2026-03-22T14:06:24Z</time></trkpt><trkpt lat="49.02569057878272" lon="1.8383544504150657"><ele>106.0</ele><time>2026-03-22T14:06:25Z</time></trkpt><trkpt lat="49.02551834568826" lon="1.8382848276077377"><ele>107.33333333333334</ele><time>2026-03-22T14:06:26Z</time></trkpt><trkpt lat="49.02535306502424" lon="1.8382079498427393"><ele>108.66666666666666</ele><time>2026-03-22T14:06:27Z</time></trkpt><trkpt lat="49.025183969629865" lon="1.838135758517322"><ele>110.0</ele><time>2026-03-22T14:06:28Z</time></trkpt><trkpt lat="49.02501977451708" lon="1.838066322185204"><ele>111.33333333333333</ele><time>2026-03-22T14:06:29Z</time></trkpt><trkpt lat="49.02483013114034" lon="1.8379955985728789"><ele>112.66666666666666</ele><time>2026-03-22T14:06:30Z</time></trkpt><trkpt lat="49.02464112004812" lon="1.8379267769931003"><ele>114.0</ele><time>2026-03-22T14:06:31Z</time></trkpt><trkpt lat="49.02443790208426" lon="1.8378628400738346"><ele>114.0</ele><time>2026-03-22T14:06:32Z</time></trkpt><trkpt lat="49.024244391880714" lon="1.8377964527320774"><ele>114.0</ele><time>2026-03-22T14:06:33Z</time></trkpt><trkpt lat="49.024065226096624" lon="1.8377417904096802"><ele>114.0</ele><time>2026-03-22T14:06:34Z</time></trkpt><trkpt lat="49.02390047089122" lon="1.8376819516234615"><ele>115.0</ele><time>2026-03-22T14:06:35Z</time></trkpt><trkpt lat="49.02374425178147" lon="1.837628745756412"><ele>116.0</ele><time>2026-03-22T14:06:36Z</time></trkpt><trkpt lat="49.023593664790994" lon="1.8375774720663416"><ele>117.0</ele><time>2026-03-22T14:06:37Z</time></trkpt><trkpt lat="49.023463031491396" lon="1.837530366925742"><ele>118.0</ele><time>2026-03-22T14:06:38Z</time></trkpt><trkpt lat="49.02335440753934" lon="1.8374901507707497"><ele>118.2</ele><time>2026-03-22T14:06:39Z</time></trkpt><trkpt lat="49.02326380896901" lon="1.8374482405765014"><ele>118.4</ele><time>2026-03-22T14:06:40Z</time></trkpt><trkpt lat="49.02318047373458" lon="1.8373726859223758"><ele>118.60000000000001</ele><time>2026-03-22T14:06:41Z</time></trkpt><trkpt lat="49.023098668830784" lon="1.8372556228801404"><ele>118.80000000000001</ele><time>2026-03-22T14:06:42Z</time></trkpt><trkpt lat="49.02300292524581" lon="1.8371178805083157"><ele>119.0</ele><time>2026-03-22T14:06:43Z</time></trkpt><trkpt lat="49.02289920056243" lon="1.8369337307495723"><ele>119.0</ele><time>2026-03-22T14:06:44Z</time></trkpt><trkpt lat="49.022769384955375" lon="1.8367325005501207"><ele>119.0</ele><time>2026-03-22T14:06:45Z</time></trkpt><trkpt lat="49.022628975936854" lon="1.836508836871503"><ele>119.0</ele><time>2026-03-22T14:06:46Z</time></trkpt><trkpt lat="49.02248979023094" lon="1.8362760952529689"><ele>119.33333333333333</ele><time>2026-03-22T14:06:47Z</time></trkpt><trkpt lat="49.02238030169483" lon="1.836050765396072"><ele>119.66666666666666</ele><time>2026-03-22T14:06:48Z</time></trkpt><trkpt lat="49.02227120140232" lon="1.8358048623467424"><ele>120.0</ele><time>2026-03-22T14:06:49Z</time></trkpt><trkpt lat="49.022158362916265" lon="1.8355271728590814"><ele>119.0</ele><time>2026-03-22T14:06:50Z</time></trkpt><trkpt lat="49.02205608008389" lon="1.8352614677669228"><ele>118.0</ele><time>2026-03-22T14:06:51Z</time></trkpt><trkpt lat="49.021965552894144" lon="1.8350239770448222"><ele>117.0</ele><time>2026-03-22T14:06:52Z</time></trkpt><trkpt lat="49.02186466113326" lon="1.8347791070280874"><ele>117.66666666666666</ele><time>2026-03-22T14:06:53Z</time></trkpt><trkpt lat="49.021752465379556" lon="1.834522710992569"><ele>118.33333333333333</ele><time>2026-03-22T14:06:54Z</time></trkpt><trkpt lat="49.021636491013325" lon="1.8342504925048198"><ele>119.0</ele><time>2026-03-22T14:06:55Z</time></trkpt><trkpt lat="49.0215201973958" lon="1.8339621377290731"><ele>119.0</ele><time>2026-03-22T14:06:56Z</time></trkpt><trkpt lat="49.021410515694434" lon="1.8336916916913824"><ele>119.0</ele><time>2026-03-22T14:06:57Z</time></trkpt><trkpt lat="49.02131237102727" lon="1.833443772516019"><ele>119.0</ele><time>2026-03-22T14:06:58Z</time></trkpt><trkpt lat="49.021207651094244" lon="1.8331910178278732"><ele>118.66666666666666</ele><time>2026-03-22T14:06:59Z</time></trkpt><trkpt lat="49.02110533265071" lon="1.8329390891940063"><ele>118.33333333333334</ele><time>2026-03-22T14:07:00Z</time></trkpt><trkpt lat="49.02100708976074" lon="1.8326935440311993"><ele>118.0</ele><time>2026-03-22T14:07:01Z</time></trkpt><trkpt lat="49.020912217145856" lon="1.832461880430375"><ele>118.5</ele><time>2026-03-22T14:07:02Z</time></trkpt><trkpt lat="49.02082573049546" lon="1.8322519890331026"><ele>119.0</ele><time>2026-03-22T14:07:03Z</time></trkpt><trkpt lat="49.02074411048787" lon="1.8320638288519653"><ele>119.5</ele><time>2026-03-22T14:07:04Z</time></trkpt><trkpt lat="49.02066200051584" lon="1.831893178223202"><ele>120.0</ele><time>2026-03-22T14:07:05Z</time></trkpt><trkpt lat="49.02057671771928" lon="1.8317613532224684"><ele>122.0</ele><time>2026-03-22T14:07:06Z</time></trkpt><trkpt lat="49.02049296889635" lon="1.831655047213844"><ele>124.0</ele><time>2026-03-22T14:07:07Z</time></trkpt><trkpt lat="49.02041440678877" lon="1.8315747143391141"><ele>126.0</ele><time>2026-03-22T14:07:08Z</time></trkpt><trkpt lat="49.02034524641877" lon="1.8315325466296748"><ele>128.0</ele><time>2026-03-22T14:07:09Z</time></trkpt><trkpt lat="49.02023204624544" lon="1.8314296645760961"><ele>130.0</ele><time>2026-03-22T14:07:11Z</time></trkpt><trkpt lat="49.02017331122129" lon="1.8313795987090518"><ele>130.0</ele><time>2026-03-22T14:07:12Z</time></trkpt><trkpt lat="49.020097947551776" lon="1.8313208123753026"><ele>130.0</ele><time>2026-03-22T14:07:13Z</time></trkpt><trkpt lat="49.019815545546685" lon="1.8317579671704711"><ele>131.16666666666669</ele><time>2026-03-22T14:07:14Z</time></trkpt><trkpt lat="49.019733382065226" lon="1.8317967444902714"><ele>132.33333333333334</ele><time>2026-03-22T14:07:15Z</time></trkpt><trkpt lat="49.0196490535295" lon="1.8317989289999546"><ele>133.5</ele><time>2026-03-22T14:07:16Z</time></trkpt><trkpt lat="49.019572437888776" lon="1.8318014725245408"><ele>134.66666666666666</ele><time>2026-03-22T14:07:17Z</time></trkpt><trkpt lat="49.01948920905187" lon="1.8317703020716682"><ele>135.83333333333331</ele><time>2026-03-22T14:07:18Z</time></trkpt><trkpt lat="49.01939643291561" lon="1.8317444852342102"><ele>137.0</ele><time>2026-03-22T14:07:19Z</time></trkpt><trkpt lat="49.01928741426108" lon="1.831753588272989"><ele>137.0</ele><time>2026-03-22T14:07:20Z</time></trkpt><trkpt lat="49.01916379827345" lon="1.8317632021689887"><ele>137.0</ele><time>2026-03-22T14:07:21Z</time></trkpt><trkpt lat="49.01902018183044" lon="1.8317393546196292"><ele>137.0</ele><time>2026-03-22T14:07:22Z</time></trkpt><trkpt lat="49.018883074639724" lon="1.8317342994090202"><ele>137.0</ele><time>2026-03-22T14:07:23Z</time></trkpt><trkpt lat="49.01878693801514" lon="1.8317500140501581"><ele>137.79999999999998</ele><time>2026-03-22T14:07:24Z</time></trkpt><trkpt lat="49.01868868285796" lon="1.8317415410254678"><ele>138.6</ele><time>2026-03-22T14:07:25Z</time></trkpt><trkpt lat="49.01857270570524" lon="1.831740352922746"><ele>139.39999999999998</ele><time>2026-03-22T14:07:26Z</time></trkpt><trkpt lat="49.01846332125773" lon="1.8317233802549227"><ele>140.2</ele><time>2026-03-22T14:07:27Z</time></trkpt><trkpt lat="49.01839677483297" lon="1.8317092020195809"><ele>141.0</ele><time>2026-03-22T14:07:28Z</time></trkpt><trkpt lat="49.018330546643774" lon="1.8316971061843208"><ele>142.4</ele><time>2026-03-22T14:07:29Z</time></trkpt><trkpt lat="49.01824993799197" lon="1.8316847021208706"><ele>143.8</ele><time>2026-03-22T14:07:30Z</time></trkpt><trkpt lat="49.01815104167113" lon="1.831668961670689"><ele>145.20000000000002</ele><time>2026-03-22T14:07:31Z</time></trkpt><trkpt lat="49.018039493579856" lon="1.8316290380230233"><ele>146.6</ele><time>2026-03-22T14:07:32Z</time></trkpt><trkpt lat="49.01792547015619" lon="1.8315837776488253"><ele>148.0</ele><time>2026-03-22T14:07:33Z</time></trkpt><trkpt lat="49.017821393167026" lon="1.8315570934330336"><ele>148.0</ele><time>2026-03-22T14:07:34Z</time></trkpt><trkpt lat="49.01772831485068" lon="1.8315339714698982"><ele>148.0</ele><time>2026-03-22T14:07:35Z</time></trkpt><trkpt lat="49.017632184249926" lon="1.8314675747225557"><ele>148.0</ele><time>2026-03-22T14:07:36Z</time></trkpt><trkpt lat="49.017528124801515" lon="1.8313815236510917"><ele>148.0</ele><time>2026-03-22T14:07:37Z</time></trkpt><trkpt lat="49.01741076567554" lon="1.8313082789478252"><ele>148.0</ele><time>2026-03-22T14:07:38Z</time></trkpt><trkpt lat="49.01726109105454" lon="1.8312238927504907"><ele>148.8</ele><time>2026-03-22T14:07:39Z</time></trkpt><trkpt lat="49.01712951348959" lon="1.8311552854466693"><ele>149.60000000000002</ele><time>2026-03-22T14:07:40Z</time></trkpt><trkpt lat="49.01702939599617" lon="1.8311158905186082"><ele>150.39999999999998</ele><time>2026-03-22T14:07:41Z</time></trkpt><trkpt lat="49.01695253523002" lon="1.8310900370587275"><ele>151.2</ele><time>2026-03-22T14:07:42Z</time></trkpt><trkpt lat="49.016867285714156" lon="1.8310798457053197"><ele>152.0</ele><time>2026-03-22T14:07:44Z</time></trkpt><trkpt lat="49.01676644202324" lon="1.831029451664467"><ele>152.0</ele><time>2026-03-22T14:07:46Z</time></trkpt><trkpt lat="49.01667210641106" lon="1.8309921502322113"><ele>152.0</ele><time>2026-03-22T14:07:48Z</time></trkpt><trkpt lat="49.01657440409714" lon="1.8309185921320958"><ele>152.0</ele><time>2026-03-22T14:07:51Z</time></trkpt><trkpt lat="49.01649890350207" lon="1.8309025981538407"><ele>152.0</ele><time>2026-03-22T14:07:53Z</time></trkpt><trkpt lat="49.01638595536193" lon="1.8308780455917317"><ele>152.0</ele><time>2026-03-22T14:07:55Z</time></trkpt><trkpt lat="49.01626183096306" lon="1.830877771810306"><ele>151.83333333333331</ele><time>2026-03-22T14:07:57Z</time></trkpt><trkpt lat="49.01618190239597" lon="1.8308533660819994"><ele>151.66666666666666</ele><time>2026-03-22T14:07:58Z</time></trkpt><trkpt lat="49.01611479918681" lon="1.8308347919639418"><ele>151.5</ele><time>2026-03-22T14:07:59Z</time></trkpt><trkpt lat="49.01603466550332" lon="1.8308305919398893"><ele>151.33333333333334</ele><time>2026-03-22T14:08:00Z</time></trkpt><trkpt lat="49.01594654869024" lon="1.8308069021935764"><ele>151.16666666666669</ele><time>2026-03-22T14:08:01Z</time></trkpt><trkpt lat="49.01586371969851" lon="1.8307935934621102"><ele>151.0</ele><time>2026-03-22T14:08:02Z</time></trkpt><trkpt lat="49.015772827555985" lon="1.8308038420320278"><ele>152.0</ele><time>2026-03-22T14:08:03Z</time></trkpt><trkpt lat="49.01569527931846" lon="1.83084968311551"><ele>153.0</ele><time>2026-03-22T14:08:04Z</time></trkpt><trkpt lat="49.0156148080961" lon="1.8308586053957427"><ele>154.0</ele><time>2026-03-22T14:08:05Z</time></trkpt><trkpt lat="49.01550807496839" lon="1.8308745839594198"><ele>155.0</ele><time>2026-03-22T14:08:06Z</time></trkpt><trkpt lat="49.01539980566477" lon="1.8308909235520756"><ele>156.0</ele><time>2026-03-22T14:08:07Z</time></trkpt><trkpt lat="49.015297776017015" lon="1.8309001568713452"><ele>156.0</ele><time>2026-03-22T14:08:08Z</time></trkpt><trkpt lat="49.01522400451689" lon="1.8308683520364548"><ele>156.0</ele><time>2026-03-22T14:08:09Z</time></trkpt><trkpt lat="49.01513062123379" lon="1.8308117556864194"><ele>156.0</ele><time>2026-03-22T14:08:10Z</time></trkpt><trkpt lat="49.01501912771411" lon="1.8308058713951572"><ele>156.0</ele><time>2026-03-22T14:08:11Z</time></trkpt><trkpt lat="49.01487849934176" lon="1.8307777442581998"><ele>156.0</ele><time>2026-03-22T14:08:12Z</time></trkpt><trkpt lat="49.01472317878405" lon="1.8307099012196224"><ele>156.33333333333334</ele><time>2026-03-22T14:08:13Z</time></trkpt><trkpt lat="49.01458492431687" lon="1.8305845680362227"><ele>156.66666666666669</ele><time>2026-03-22T14:08:14Z</time></trkpt><trkpt lat="49.01445206143176" lon="1.8304281105465554"><ele>157.0</ele><time>2026-03-22T14:08:15Z</time></trkpt><trkpt lat="49.01435310999313" lon="1.8303151710739773"><ele>157.0</ele><time>2026-03-22T14:08:16Z</time></trkpt><trkpt lat="49.01429201676705" lon="1.830232336889665"><ele>157.0</ele><time>2026-03-22T14:08:17Z</time></trkpt><trkpt lat="49.014225715461095" lon="1.8301282364991422"><ele>157.0</ele><time>2026-03-22T14:08:18Z</time></trkpt><trkpt lat="49.014177684113925" lon="1.8300470493186252"><ele>157.0</ele><time>2026-03-22T14:08:19Z</time></trkpt><trkpt lat="49.01411405044774" lon="1.8300266694843266"><ele>157.0</ele><time>2026-03-22T14:08:20Z</time></trkpt><trkpt lat="49.01404011613545" lon="1.8301074822053265"><ele>157.0</ele><time>2026-03-22T14:08:21Z</time></trkpt><trkpt lat="49.01393612419263" lon="1.8301999327122018"><ele>159.75</ele><time>2026-03-22T14:08:22Z</time></trkpt><trkpt lat="49.01380434149031" lon="1.8302855314420579"><ele>162.5</ele><time>2026-03-22T14:08:23Z</time></trkpt><trkpt lat="49.013668682424736" lon="1.8303513245161638"><ele>165.25</ele><time>2026-03-22T14:08:24Z</time></trkpt><trkpt lat="49.01352139852367" lon="1.8304382153611536"><ele>168.0</ele><time>2026-03-22T14:08:25Z</time></trkpt><trkpt lat="49.01335701365268" lon="1.8305611530221082"><ele>172.66666666666666</ele><time>2026-03-22T14:08:26Z</time></trkpt><trkpt lat="49.01317734313832" lon="1.8306857880250351"><ele>177.33333333333331</ele><time>2026-03-22T14:08:27Z</time></trkpt><trkpt lat="49.01301704035168" lon="1.830789199265582"><ele>182.0</ele><time>2026-03-22T14:08:28Z</time></trkpt><trkpt lat="49.01289260398227" lon="1.8308459205993064"><ele>182.0</ele><time>2026-03-22T14:08:29Z</time></trkpt><trkpt lat="49.01275090022374" lon="1.8308656158301742"><ele>182.0</ele><time>2026-03-22T14:08:30Z</time></trkpt><trkpt lat="49.01262125199711" lon="1.8309119757990886"><ele>182.0</ele><time>2026-03-22T14:08:31Z</time></trkpt><trkpt lat="49.01250125010977" lon="1.8309719020138588"><ele>182.0</ele><time>2026-03-22T14:08:32Z</time></trkpt><trkpt lat="49.0123954502125" lon="1.8310777544279488"><ele>181.0</ele><time>2026-03-22T14:08:33Z</time></trkpt><trkpt lat="49.012312188946" lon="1.8311525148624075"><ele>180.0</ele><time>2026-03-22T14:08:34Z</time></trkpt><trkpt lat="49.012255670386345" lon="1.8312140880025212"><ele>179.0</ele><time>2026-03-22T14:08:35Z</time></trkpt><trkpt lat="49.01219462194622" lon="1.8312474339721223"><ele>178.0</ele><time>2026-03-22T14:08:36Z</time></trkpt><trkpt lat="49.012100930410554" lon="1.830964905431536"><ele>177.0</ele><time>2026-03-22T14:08:42Z</time></trkpt><trkpt lat="49.012083047056954" lon="1.8308121284190106"><ele>177.0</ele><time>2026-03-22T14:08:43Z</time></trkpt><trkpt lat="49.012079261874526" lon="1.8306123711470466"><ele>177.0</ele><time>2026-03-22T14:08:44Z</time></trkpt><trkpt lat="49.01207480901316" lon="1.8303878075072733"><ele>177.0</ele><time>2026-03-22T14:08:45Z</time></trkpt><trkpt lat="49.01208639451156" lon="1.830234271404651"><ele>177.0</ele><time>2026-03-22T14:08:46Z</time></trkpt><trkpt lat="49.01213396667296" lon="1.830024363135518"><ele>179.33333333333334</ele><time>2026-03-22T14:08:47Z</time></trkpt><trkpt lat="49.012202312850874" lon="1.8297731512571414"><ele>181.66666666666669</ele><time>2026-03-22T14:08:48Z</time></trkpt><trkpt lat="49.01226212483249" lon="1.829533380141828"><ele>184.0</ele><time>2026-03-22T14:08:49Z</time></trkpt><trkpt lat="49.01231120142857" lon="1.829345630937307"><ele>184.0</ele><time>2026-03-22T14:08:50Z</time></trkpt><trkpt lat="49.012325416134075" lon="1.8291096585683735"><ele>184.0</ele><time>2026-03-22T14:08:51Z</time></trkpt><trkpt lat="49.01236881475534" lon="1.8288922602022277"><ele>184.0</ele><time>2026-03-22T14:08:52Z</time></trkpt><trkpt lat="49.01243066996707" lon="1.8287063826615941"><ele>184.0</ele><time>2026-03-22T14:08:53Z</time></trkpt><trkpt lat="49.012479423237714" lon="1.8284969921154717"><ele>184.2</ele><time>2026-03-22T14:08:54Z</time></trkpt><trkpt lat="49.01251337791097" lon="1.828353449238409"><ele>184.39999999999998</ele><time>2026-03-22T14:08:55Z</time></trkpt><trkpt lat="49.01253132607785" lon="1.8282000380073473"><ele>184.6</ele><time>2026-03-22T14:08:56Z</time></trkpt><trkpt lat="49.01258160108491" lon="1.8280473586915666"><ele>184.8</ele><time>2026-03-22T14:08:57Z</time></trkpt><trkpt lat="49.012619117945945" lon="1.8279574564292405"><ele>185.0</ele><time>2026-03-22T14:08:58Z</time></trkpt><trkpt lat="49.01265093484266" lon="1.8278429925568809"><ele>185.0</ele><time>2026-03-22T14:08:59Z</time></trkpt><trkpt lat="49.01266886885765" lon="1.8277189501475364"><ele>185.0</ele><time>2026-03-22T14:09:00Z</time></trkpt><trkpt lat="49.012699204396476" lon="1.827563639684882"><ele>185.0</ele><time>2026-03-22T14:09:01Z</time></trkpt><trkpt lat="49.01271036656209" lon="1.8274088470806238"><ele>185.0</ele><time>2026-03-22T14:09:02Z</time></trkpt><trkpt lat="49.01274327095631" lon="1.82728261411322"><ele>185.0</ele><time>2026-03-22T14:09:03Z</time></trkpt><trkpt lat="49.01277559152482" lon="1.8271293522642884"><ele>185.0</ele><time>2026-03-22T14:09:04Z</time></trkpt><trkpt lat="49.01279815050716" lon="1.8269581594220845"><ele>185.0</ele><time>2026-03-22T14:09:05Z</time></trkpt><trkpt lat="49.012801314276885" lon="1.826824395689843"><ele>185.0</ele><time>2026-03-22T14:09:06Z</time></trkpt><trkpt lat="49.01281314455132" lon="1.8267121390040488"><ele>185.0</ele><time>2026-03-22T14:09:08Z</time></trkpt><trkpt lat="49.01282674271384" lon="1.8266064635188508"><ele>185.0</ele><time>2026-03-22T14:09:10Z</time></trkpt><trkpt lat="49.01283385542575" lon="1.8264537937197665"><ele>185.0</ele><time>2026-03-22T14:09:12Z</time></trkpt><trkpt lat="49.01284678862828" lon="1.8263445201448172"><ele>185.2</ele><time>2026-03-22T14:09:15Z</time></trkpt><trkpt lat="49.012841234409386" lon="1.8261630056694103"><ele>185.4</ele><time>2026-03-22T14:09:18Z</time></trkpt><trkpt lat="49.01284370353006" lon="1.8260516954389308"><ele>185.60000000000002</ele><time>2026-03-22T14:09:19Z</time></trkpt><trkpt lat="49.012824296905755" lon="1.825930099624459"><ele>185.8</ele><time>2026-03-22T14:09:20Z</time></trkpt><trkpt lat="49.012782797144915" lon="1.8257895656891576"><ele>186.0</ele><time>2026-03-22T14:09:21Z</time></trkpt><trkpt lat="49.01273786351159" lon="1.8256843017950652"><ele>186.0</ele><time>2026-03-22T14:09:22Z</time></trkpt><trkpt lat="49.012673429997385" lon="1.8256113680640456"><ele>186.0</ele><time>2026-03-22T14:09:23Z</time></trkpt><trkpt lat="49.012593650582794" lon="1.8255154545137378"><ele>186.0</ele><time>2026-03-22T14:09:24Z</time></trkpt><trkpt lat="49.01251756147629" lon="1.8254369029579047"><ele>186.0</ele><time>2026-03-22T14:09:25Z</time></trkpt><trkpt lat="49.0124466390493" lon="1.8253053685510456"><ele>186.0</ele><time>2026-03-22T14:09:26Z</time></trkpt><trkpt lat="49.01236649769089" lon="1.8251810650526508"><ele>185.8</ele><time>2026-03-22T14:09:27Z</time></trkpt><trkpt lat="49.01229649326311" lon="1.8250577142654145"><ele>185.60000000000002</ele><time>2026-03-22T14:09:28Z</time></trkpt><trkpt lat="49.01225452730083" lon="1.8249412343244913"><ele>185.4</ele><time>2026-03-22T14:09:29Z</time></trkpt><trkpt lat="49.01225331905234" lon="1.8248045510370383"><ele>185.2</ele><time>2026-03-22T14:09:30Z</time></trkpt><trkpt lat="49.012254778381234" lon="1.8246658311419381"><ele>185.0</ele><time>2026-03-22T14:09:31Z</time></trkpt><trkpt lat="49.012250340818426" lon="1.8245223594697277"><ele>185.0</ele><time>2026-03-22T14:09:32Z</time></trkpt><trkpt lat="49.012213461521725" lon="1.824397417533239"><ele>185.0</ele><time>2026-03-22T14:09:34Z</time></trkpt><trkpt lat="49.01218946450109" lon="1.8242642130594962"><ele>185.0</ele><time>2026-03-22T14:09:35Z</time></trkpt><trkpt lat="49.01217974264309" lon="1.8240694629642422"><ele>185.0</ele><time>2026-03-22T14:09:36Z</time></trkpt><trkpt lat="49.01217213891694" lon="1.8238304417385156"><ele>185.0</ele><time>2026-03-22T14:09:37Z</time></trkpt><trkpt lat="49.01215607886283" lon="1.8236293969799215"><ele>185.0</ele><time>2026-03-22T14:09:38Z</time></trkpt><trkpt lat="49.012135970479335" lon="1.8234987544665597"><ele>185.0</ele><time>2026-03-22T14:09:39Z</time></trkpt><trkpt lat="49.01210424592339" lon="1.823363555501937"><ele>185.0</ele><time>2026-03-22T14:09:40Z</time></trkpt><trkpt lat="49.01206872973586" lon="1.8231786681697562"><ele>185.0</ele><time>2026-03-22T14:09:41Z</time></trkpt><trkpt lat="49.01205114356639" lon="1.8230399183187076"><ele>184.99999999999997</ele><time>2026-03-22T14:09:42Z</time></trkpt><trkpt lat="49.0120362123218" lon="1.8229376451638835"><ele>185.0</ele><time>2026-03-22T14:09:43Z</time></trkpt><trkpt lat="49.011998479088916" lon="1.822859490307125"><ele>185.0</ele><time>2026-03-22T14:09:46Z</time></trkpt><trkpt lat="49.01196902163851" lon="1.8227499662287814"><ele>185.0</ele><time>2026-03-22T14:09:49Z</time></trkpt><trkpt lat="49.01193107181799" lon="1.8226236130091158"><ele>185.0</ele><time>2026-03-22T14:09:51Z</time></trkpt><trkpt lat="49.01190708531081" lon="1.8225145633191633"><ele>184.99999999999997</ele><time>2026-03-22T14:09:52Z</time></trkpt><trkpt lat="49.011895606447844" lon="1.8224067635757184"><ele>185.0</ele><time>2026-03-22T14:09:55Z</time></trkpt><trkpt lat="49.011882780105964" lon="1.8222956948367381"><ele>184.66666666666666</ele><time>2026-03-22T14:09:58Z</time></trkpt><trkpt lat="49.01190318402553" lon="1.8221697009664848"><ele>184.33333333333334</ele><time>2026-03-22T14:10:01Z</time></trkpt><trkpt lat="49.01190701763124" lon="1.8220692762551807"><ele>184.0</ele><time>2026-03-22T14:10:04Z</time></trkpt><trkpt lat="49.011821080282" lon="1.8214875048807628"><ele>184.0</ele><time>2026-03-22T14:10:06Z</time></trkpt><trkpt lat="49.011804635692386" lon="1.821380191677754"><ele>184.0</ele><time>2026-03-22T14:10:07Z</time></trkpt><trkpt lat="49.011790493174026" lon="1.8212638690402154"><ele>184.0</ele><time>2026-03-22T14:10:08Z</time></trkpt><trkpt lat="49.01176970640834" lon="1.8211078339771773"><ele>184.0</ele><time>2026-03-22T14:10:10Z</time></trkpt><trkpt lat="49.01176427949612" lon="1.8209558046969858"><ele>184.0</ele><time>2026-03-22T14:10:12Z</time></trkpt><trkpt lat="49.011786256407326" lon="1.8208130417447503"><ele>184.33333333333334</ele><time>2026-03-22T14:10:14Z</time></trkpt><trkpt lat="49.01180150599219" lon="1.8206407551568144"><ele>184.66666666666669</ele><time>2026-03-22T14:10:16Z</time></trkpt><trkpt lat="49.011796620887104" lon="1.8205242673060822"><ele>185.0</ele><time>2026-03-22T14:10:17Z</time></trkpt><trkpt lat="49.01179706589556" lon="1.8204082626530442"><ele>185.33333333333334</ele><time>2026-03-22T14:10:18Z</time></trkpt><trkpt lat="49.011800364431124" lon="1.8203076109967062"><ele>185.66666666666666</ele><time>2026-03-22T14:10:19Z</time></trkpt><trkpt lat="49.01182355894857" lon="1.8201704932174565"><ele>186.0</ele><time>2026-03-22T14:10:20Z</time></trkpt><trkpt lat="49.01184285320958" lon="1.819996393157405"><ele>186.5</ele><time>2026-03-22T14:10:21Z</time></trkpt><trkpt lat="49.01186230242537" lon="1.8197962933529421"><ele>187.0</ele><time>2026-03-22T14:10:22Z</time></trkpt><trkpt lat="49.01187880624341" lon="1.8195904871094444"><ele>187.5</ele><time>2026-03-22T14:10:23Z</time></trkpt><trkpt lat="49.011918911953565" lon="1.8194155933519167"><ele>188.0</ele><time>2026-03-22T14:10:24Z</time></trkpt><trkpt lat="49.01195019680841" lon="1.8192240809746543"><ele>188.66666666666666</ele><time>2026-03-22T14:10:25Z</time></trkpt><trkpt lat="49.01203470624542" lon="1.818997476141505"><ele>189.33333333333334</ele><time>2026-03-22T14:10:26Z</time></trkpt><trkpt lat="49.012086157145994" lon="1.8186688638784267"><ele>190.0</ele><time>2026-03-22T14:10:27Z</time></trkpt><trkpt lat="49.01213085504026" lon="1.8184055954207132"><ele>191.33333333333334</ele><time>2026-03-22T14:10:28Z</time></trkpt><trkpt lat="49.01218075429734" lon="1.8181879893507449"><ele>192.66666666666669</ele><time>2026-03-22T14:10:29Z</time></trkpt><trkpt lat="49.01221372681605" lon="1.8179089739827814"><ele>194.0</ele><time>2026-03-22T14:10:30Z</time></trkpt><trkpt lat="49.01226719854334" lon="1.817617982654943"><ele>194.33333333333334</ele><time>2026-03-22T14:10:31Z</time></trkpt><trkpt lat="49.01231112977238" lon="1.81735672408516"><ele>194.66666666666669</ele><time>2026-03-22T14:10:32Z</time></trkpt><trkpt lat="49.012331579702526" lon="1.8171230823622042"><ele>195.0</ele><time>2026-03-22T14:10:33Z</time></trkpt><trkpt lat="49.01236703748871" lon="1.8169368739450382"><ele>195.0</ele><time>2026-03-22T14:10:34Z</time></trkpt><trkpt lat="49.01238075577629" lon="1.8167834867458965"><ele>195.0</ele><time>2026-03-22T14:10:35Z</time></trkpt><trkpt lat="49.01238410303825" lon="1.8166611344392798"><ele>195.0</ele><time>2026-03-22T14:10:36Z</time></trkpt><trkpt lat="49.012377271455655" lon="1.8165438705455388"><ele>195.0</ele><time>2026-03-22T14:10:38Z</time></trkpt><trkpt lat="49.01237304133849" lon="1.8164445395259388"><ele>195.0</ele><time>2026-03-22T14:10:40.999Z</time></trkpt><trkpt lat="49.01231620354699" lon="1.8162974129557707"><ele>195.0</ele><time>2026-03-22T14:10:50.999Z</time></trkpt><trkpt lat="49.01233324955108" lon="1.8162039106397012"><ele>195.0</ele><time>2026-03-22T14:10:52.999Z</time></trkpt><trkpt lat="49.012370351265204" lon="1.8160964277128364"><ele>195.0</ele><time>2026-03-22T14:10:54.999Z</time></trkpt><trkpt lat="49.012379970358786" lon="1.8159826081314152"><ele>195.0</ele><time>2026-03-22T14:10:55.999Z</time></trkpt><trkpt lat="49.012400773095514" lon="1.8158743919824887"><ele>195.0</ele><time>2026-03-22T14:10:56.999Z</time></trkpt><trkpt lat="49.01244973001249" lon="1.8157101942062537"><ele>195.0</ele><time>2026-03-22T14:10:57.999Z</time></trkpt><trkpt lat="49.012482334487814" lon="1.815538825478927"><ele>194.8</ele><time>2026-03-22T14:10:59Z</time></trkpt><trkpt lat="49.012535861408466" lon="1.815371318748584"><ele>194.6</ele><time>2026-03-22T14:11:00Z</time></trkpt><trkpt lat="49.01256337649065" lon="1.8152028888304017"><ele>194.39999999999998</ele><time>2026-03-22T14:11:01Z</time></trkpt><trkpt lat="49.01256319818045" lon="1.8150416741282598"><ele>194.2</ele><time>2026-03-22T14:11:02Z</time></trkpt><trkpt lat="49.01259294876924" lon="1.8148865844552027"><ele>194.0</ele><time>2026-03-22T14:11:03Z</time></trkpt><trkpt lat="49.01261322596615" lon="1.8147673946107958"><ele>193.66666666666669</ele><time>2026-03-22T14:11:04Z</time></trkpt><trkpt lat="49.012630073612236" lon="1.8146481315274787"><ele>193.33333333333334</ele><time>2026-03-22T14:11:05Z</time></trkpt><trkpt lat="49.0126347266858" lon="1.8145436931182144"><ele>193.0</ele><time>2026-03-22T14:11:06Z</time></trkpt><trkpt lat="49.012661001654" lon="1.8144428804282717"><ele>192.66666666666669</ele><time>2026-03-22T14:11:07Z</time></trkpt><trkpt lat="49.01269887098316" lon="1.8142854038583367"><ele>192.33333333333334</ele><time>2026-03-22T14:11:08Z</time></trkpt><trkpt lat="49.012726552447816" lon="1.8141287192488722"><ele>192.0</ele><time>2026-03-22T14:11:09Z</time></trkpt><trkpt lat="49.012747469973185" lon="1.8139596553885071"><ele>191.75</ele><time>2026-03-22T14:11:10Z</time></trkpt><trkpt lat="49.012766864004675" lon="1.8137782875787467"><ele>191.5</ele><time>2026-03-22T14:11:11Z</time></trkpt><trkpt lat="49.01280461220911" lon="1.813570668945308"><ele>191.25</ele><time>2026-03-22T14:11:12Z</time></trkpt><trkpt lat="49.012827838610036" lon="1.813383882392974"><ele>191.0</ele><time>2026-03-22T14:11:13Z</time></trkpt><trkpt lat="49.01285149338922" lon="1.8132079377348875"><ele>191.0</ele><time>2026-03-22T14:11:14Z</time></trkpt><trkpt lat="49.012885362545646" lon="1.8130396895448166"><ele>191.0</ele><time>2026-03-22T14:11:15Z</time></trkpt><trkpt lat="49.01292944122922" lon="1.8128451572974296"><ele>191.0</ele><time>2026-03-22T14:11:16Z</time></trkpt><trkpt lat="49.012952177482816" lon="1.812655717472318"><ele>191.0</ele><time>2026-03-22T14:11:17Z</time></trkpt><trkpt lat="49.012993309449456" lon="1.812451370388551"><ele>190.25</ele><time>2026-03-22T14:11:18Z</time></trkpt><trkpt lat="49.013019669452554" lon="1.8122319246980023"><ele>189.5</ele><time>2026-03-22T14:11:19Z</time></trkpt><trkpt lat="49.013043183418986" lon="1.8120545669410097"><ele>188.75</ele><time>2026-03-22T14:11:20Z</time></trkpt><trkpt lat="49.01308713685454" lon="1.81186055945187"><ele>188.0</ele><time>2026-03-22T14:11:21Z</time></trkpt><trkpt lat="49.01311496221754" lon="1.8116349922941135"><ele>187.25</ele><time>2026-03-22T14:11:22Z</time></trkpt><trkpt lat="49.013142718605984" lon="1.811428990054809"><ele>186.5</ele><time>2026-03-22T14:11:23Z</time></trkpt><trkpt lat="49.013164462324454" lon="1.8112167793590164"><ele>185.75</ele><time>2026-03-22T14:11:24Z</time></trkpt><trkpt lat="49.013209310896755" lon="1.8110113266378143"><ele>185.0</ele><time>2026-03-22T14:11:25Z</time></trkpt><trkpt lat="49.013252300096916" lon="1.8108175407090947"><ele>184.0</ele><time>2026-03-22T14:11:26Z</time></trkpt><trkpt lat="49.01330079219833" lon="1.8106006415212388"><ele>183.0</ele><time>2026-03-22T14:11:27Z</time></trkpt><trkpt lat="49.013349428701865" lon="1.8103861486631312"><ele>182.0</ele><time>2026-03-22T14:11:28Z</time></trkpt><trkpt lat="49.013395264306936" lon="1.8101581056439884"><ele>183.8</ele><time>2026-03-22T14:11:29Z</time></trkpt><trkpt lat="49.013421740664185" lon="1.809986184897006"><ele>185.6</ele><time>2026-03-22T14:11:30Z</time></trkpt><trkpt lat="49.01344014931018" lon="1.8098606480726054"><ele>187.4</ele><time>2026-03-22T14:11:31Z</time></trkpt><trkpt lat="49.0134906129722" lon="1.8097139665928714"><ele>189.20000000000002</ele><time>2026-03-22T14:11:32Z</time></trkpt><trkpt lat="49.0135248811214" lon="1.8095384640008314"><ele>191.0</ele><time>2026-03-22T14:11:33Z</time></trkpt><trkpt lat="49.013563820811264" lon="1.8093558369103497"><ele>191.66666666666666</ele><time>2026-03-22T14:11:34Z</time></trkpt><trkpt lat="49.01360122110335" lon="1.8091469447545856"><ele>192.33333333333331</ele><time>2026-03-22T14:11:35Z</time></trkpt><trkpt lat="49.01364875055749" lon="1.8089271415142527"><ele>193.0</ele><time>2026-03-22T14:11:36Z</time></trkpt><trkpt lat="49.013713595244134" lon="1.8086992633380776"><ele>192.33333333333331</ele><time>2026-03-22T14:11:37Z</time></trkpt><trkpt lat="49.0137787148192" lon="1.8084664219829498"><ele>191.66666666666666</ele><time>2026-03-22T14:11:38Z</time></trkpt><trkpt lat="49.01385869876778" lon="1.8082072494109829"><ele>191.0</ele><time>2026-03-22T14:11:39Z</time></trkpt><trkpt lat="49.01393216023429" lon="1.8079543129145037"><ele>191.0</ele><time>2026-03-22T14:11:40Z</time></trkpt><trkpt lat="49.01399694256081" lon="1.8077264906337271"><ele>191.0</ele><time>2026-03-22T14:11:41Z</time></trkpt><trkpt lat="49.0140765026613" lon="1.8075028815336858"><ele>191.0</ele><time>2026-03-22T14:11:42Z</time></trkpt><trkpt lat="49.014147212423545" lon="1.8073017434599452"><ele>191.75</ele><time>2026-03-22T14:11:43Z</time></trkpt><trkpt lat="49.01422951156792" lon="1.8070985456047566"><ele>192.5</ele><time>2026-03-22T14:11:44Z</time></trkpt><trkpt lat="49.01430010065006" lon="1.806911665055416"><ele>193.25</ele><time>2026-03-22T14:11:45Z</time></trkpt><trkpt lat="49.014372572621255" lon="1.8067195731860783"><ele>194.0</ele><time>2026-03-22T14:11:46Z</time></trkpt><trkpt lat="49.01445227168185" lon="1.8065242731079987"><ele>194.5</ele><time>2026-03-22T14:11:47Z</time></trkpt><trkpt lat="49.01454177710253" lon="1.8063432159473618"><ele>195.0</ele><time>2026-03-22T14:11:48Z</time></trkpt><trkpt lat="49.01463710044015" lon="1.806155652634431"><ele>195.5</ele><time>2026-03-22T14:11:49Z</time></trkpt><trkpt lat="49.01472245797427" lon="1.806007527303403"><ele>196.0</ele><time>2026-03-22T14:11:50Z</time></trkpt><trkpt lat="49.014815611252544" lon="1.8058433076728069"><ele>196.5</ele><time>2026-03-22T14:11:51Z</time></trkpt><trkpt lat="49.0149067900642" lon="1.8057145882885581"><ele>197.0</ele><time>2026-03-22T14:11:52Z</time></trkpt><trkpt lat="49.01497134642688" lon="1.8056045893424852"><ele>197.5</ele><time>2026-03-22T14:11:53Z</time></trkpt><trkpt lat="49.01508759880615" lon="1.8055029604946202"><ele>198.0</ele><time>2026-03-22T14:11:55Z</time></trkpt><trkpt lat="49.015161887571104" lon="1.805380105921869"><ele>197.42857142857144</ele><time>2026-03-22T14:11:57Z</time></trkpt><trkpt lat="49.01518753988385" lon="1.8052922507480362"><ele>196.85714285714283</ele><time>2026-03-22T14:11:58Z</time></trkpt><trkpt lat="49.01523252289707" lon="1.8051895539602618"><ele>196.28571428571428</ele><time>2026-03-22T14:11:59Z</time></trkpt><trkpt lat="49.015272345594155" lon="1.8050753109786464"><ele>195.71428571428572</ele><time>2026-03-22T14:12:00Z</time></trkpt><trkpt lat="49.01530765231975" lon="1.8049532486002464"><ele>195.14285714285717</ele><time>2026-03-22T14:12:01Z</time></trkpt><trkpt lat="49.01533582728503" lon="1.8048571734833319"><ele>194.57142857142856</ele><time>2026-03-22T14:12:02Z</time></trkpt><trkpt lat="49.01536767400652" lon="1.804772982515058"><ele>194.0</ele><time>2026-03-22T14:12:03Z</time></trkpt><trkpt lat="49.01542224374205" lon="1.8046176098346305"><ele>194.0</ele><time>2026-03-22T14:12:05Z</time></trkpt><trkpt lat="49.015484637844075" lon="1.8044795038356714"><ele>194.0</ele><time>2026-03-22T14:12:07Z</time></trkpt><trkpt lat="49.01552832311662" lon="1.8043653007342813"><ele>194.0</ele><time>2026-03-22T14:12:09Z</time></trkpt><trkpt lat="49.0156032548041" lon="1.8042540954209474"><ele>194.0</ele><time>2026-03-22T14:12:11Z</time></trkpt><trkpt lat="49.01566188248563" lon="1.8041379595266203"><ele>194.0</ele><time>2026-03-22T14:12:13Z</time></trkpt><trkpt lat="49.015722424257504" lon="1.8040219833016582"><ele>194.39999999999998</ele><time>2026-03-22T14:12:15Z</time></trkpt><trkpt lat="49.0158120394315" lon="1.8039494319307638"><ele>194.8</ele><time>2026-03-22T14:12:17Z</time></trkpt><trkpt lat="49.0158829731486" lon="1.8038458297677744"><ele>195.2</ele><time>2026-03-22T14:12:19Z</time></trkpt><trkpt lat="49.015979652865255" lon="1.803736411669514"><ele>195.60000000000002</ele><time>2026-03-22T14:12:21Z</time></trkpt><trkpt lat="49.016063984389596" lon="1.8036337759062235"><ele>196.0</ele><time>2026-03-22T14:12:23Z</time></trkpt><trkpt lat="49.01615595135743" lon="1.803526261573657"><ele>195.75</ele><time>2026-03-22T14:12:25Z</time></trkpt><trkpt lat="49.01624394899428" lon="1.803407699676319"><ele>195.5</ele><time>2026-03-22T14:12:27Z</time></trkpt><trkpt lat="49.016329902099855" lon="1.803296239752665"><ele>195.25</ele><time>2026-03-22T14:12:29Z</time></trkpt><trkpt lat="49.016419571274966" lon="1.8031960974498322"><ele>195.0</ele><time>2026-03-22T14:12:31Z</time></trkpt><trkpt lat="49.01649952347638" lon="1.8030690206545046"><ele>195.0</ele><time>2026-03-22T14:12:33Z</time></trkpt><trkpt lat="49.01655101685211" lon="1.8029801854442011"><ele>195.0</ele><time>2026-03-22T14:12:35Z</time></trkpt><trkpt lat="49.0165832744035" lon="1.8028842225331105"><ele>195.0</ele><time>2026-03-22T14:12:37Z</time></trkpt><trkpt lat="49.01663178786096" lon="1.8027670040530386"><ele>195.0</ele><time>2026-03-22T14:12:39Z</time></trkpt><trkpt lat="49.016676599272365" lon="1.8026848449528887"><ele>195.0</ele><time>2026-03-22T14:12:40Z</time></trkpt><trkpt lat="49.01672631061439" lon="1.8026032536537702"><ele>195.0</ele><time>2026-03-22T14:12:41Z</time></trkpt><trkpt lat="49.01677279883587" lon="1.8024995023528627"><ele>194.0</ele><time>2026-03-22T14:12:42Z</time></trkpt><trkpt lat="49.016825817839454" lon="1.8023975481226338"><ele>193.0</ele><time>2026-03-22T14:12:43Z</time></trkpt><trkpt lat="49.01689956784074" lon="1.802252977494994"><ele>192.0</ele><time>2026-03-22T14:12:44Z</time></trkpt><trkpt lat="49.01696646119513" lon="1.802132488485358"><ele>191.0</ele><time>2026-03-22T14:12:45Z</time></trkpt><trkpt lat="49.017043675884814" lon="1.8020211517614237"><ele>190.0</ele><time>2026-03-22T14:12:46Z</time></trkpt><trkpt lat="49.017120387685054" lon="1.8019202621276533"><ele>190.0</ele><time>2026-03-22T14:12:47Z</time></trkpt><trkpt lat="49.017188589662396" lon="1.801841358089871"><ele>190.0</ele><time>2026-03-22T14:12:48Z</time></trkpt><trkpt lat="49.01724815536866" lon="1.8017748800516142"><ele>190.0</ele><time>2026-03-22T14:12:49Z</time></trkpt><trkpt lat="49.0173066118053" lon="1.8017162609223938"><ele>190.0</ele><time>2026-03-22T14:12:52Z</time></trkpt><trkpt lat="49.01735360333008" lon="1.801635378973888"><ele>190.0</ele><time>2026-03-22T14:12:54Z</time></trkpt><trkpt lat="49.017437420721826" lon="1.801508832042028"><ele>190.0</ele><time>2026-03-22T14:12:55.999Z</time></trkpt><trkpt lat="49.01749153415623" lon="1.801449365388607"><ele>189.4</ele><time>2026-03-22T14:13:01.999Z</time></trkpt><trkpt lat="49.01756515640355" lon="1.801352617217954"><ele>188.8</ele><time>2026-03-22T14:13:05Z</time></trkpt><trkpt lat="49.017620561815015" lon="1.8012904121899382"><ele>188.2</ele><time>2026-03-22T14:13:06Z</time></trkpt><trkpt lat="49.01770431883268" lon="1.80120441881683"><ele>187.6</ele><time>2026-03-22T14:13:07Z</time></trkpt><trkpt lat="49.017796090560545" lon="1.8011196890055712"><ele>187.0</ele><time>2026-03-22T14:13:08Z</time></trkpt><trkpt lat="49.017882039246146" lon="1.8010339686515315"><ele>186.6</ele><time>2026-03-22T14:13:09Z</time></trkpt><trkpt lat="49.01795116668607" lon="1.800926065510976"><ele>186.2</ele><time>2026-03-22T14:13:10Z</time></trkpt><trkpt lat="49.01802515008931" lon="1.8008186406169593"><ele>185.8</ele><time>2026-03-22T14:13:11Z</time></trkpt><trkpt lat="49.018106404973885" lon="1.800699281842667"><ele>185.4</ele><time>2026-03-22T14:13:12Z</time></trkpt><trkpt lat="49.018197922136835" lon="1.800622085415277"><ele>185.0</ele><time>2026-03-22T14:13:13Z</time></trkpt><trkpt lat="49.01830647284179" lon="1.800572153566498"><ele>184.2</ele><time>2026-03-22T14:13:14Z</time></trkpt><trkpt lat="49.01839804957619" lon="1.8005051277169122"><ele>183.4</ele><time>2026-03-22T14:13:15Z</time></trkpt><trkpt lat="49.018534281931224" lon="1.8004549582464835"><ele>182.60000000000002</ele><time>2026-03-22T14:13:16Z</time></trkpt><trkpt lat="49.01861956978056" lon="1.8004126846838815"><ele>181.8</ele><time>2026-03-22T14:13:17Z</time></trkpt><trkpt lat="49.018698136315024" lon="1.8003928239500184"><ele>181.0</ele><time>2026-03-22T14:13:18Z</time></trkpt><trkpt lat="49.01883214596668" lon="1.800153590619575"><ele>180.5</ele><time>2026-03-22T14:13:29Z</time></trkpt><trkpt lat="49.01890761506439" lon="1.8000372320113118"><ele>180.0</ele><time>2026-03-22T14:13:30Z</time></trkpt><trkpt lat="49.01898765752582" lon="1.799877256617454"><ele>179.5</ele><time>2026-03-22T14:13:31Z</time></trkpt><trkpt lat="49.01913113542286" lon="1.7997588220933365"><ele>179.0</ele><time>2026-03-22T14:13:32Z</time></trkpt><trkpt lat="49.0192427596695" lon="1.7996946172307329"><ele>178.33333333333331</ele><time>2026-03-22T14:13:33Z</time></trkpt><trkpt lat="49.01937252060809" lon="1.7996072960031129"><ele>177.66666666666666</ele><time>2026-03-22T14:13:34Z</time></trkpt><trkpt lat="49.01950668601862" lon="1.7994788626725169"><ele>177.0</ele><time>2026-03-22T14:13:35Z</time></trkpt><trkpt lat="49.01964671868703" lon="1.7993588604790434"><ele>177.5</ele><time>2026-03-22T14:13:36Z</time></trkpt><trkpt lat="49.019757674432725" lon="1.7992512253033892"><ele>178.0</ele><time>2026-03-22T14:13:37Z</time></trkpt><trkpt lat="49.01989036343317" lon="1.7991677705789013"><ele>178.5</ele><time>2026-03-22T14:13:38Z</time></trkpt><trkpt lat="49.020026170191414" lon="1.7990500983743114"><ele>179.0</ele><time>2026-03-22T14:13:39Z</time></trkpt><trkpt lat="49.02017991758345" lon="1.7989298406222463"><ele>177.0</ele><time>2026-03-22T14:13:40Z</time></trkpt><trkpt lat="49.02033132010695" lon="1.7988006501984497"><ele>175.0</ele><time>2026-03-22T14:13:41Z</time></trkpt><trkpt lat="49.02046137434511" lon="1.798713587193426"><ele>173.0</ele><time>2026-03-22T14:13:42Z</time></trkpt><trkpt lat="49.020609017715124" lon="1.7986252164063754"><ele>173.0</ele><time>2026-03-22T14:13:43Z</time></trkpt><trkpt lat="49.02071838462659" lon="1.7985281493802223"><ele>173.0</ele><time>2026-03-22T14:13:44Z</time></trkpt><trkpt lat="49.020811736786776" lon="1.7984493609149317"><ele>173.0</ele><time>2026-03-22T14:13:45Z</time></trkpt><trkpt lat="49.02090151361192" lon="1.7983913164989227"><ele>173.0</ele><time>2026-03-22T14:13:46Z</time></trkpt><trkpt lat="49.020958683999005" lon="1.798307389484798"><ele>173.0</ele><time>2026-03-22T14:13:48Z</time></trkpt><trkpt lat="49.021028258800094" lon="1.7982480220094532"><ele>172.0</ele><time>2026-03-22T14:13:52Z</time></trkpt><trkpt lat="49.02110424458853" lon="1.7982106885270097"><ele>171.0</ele><time>2026-03-22T14:13:53Z</time></trkpt><trkpt lat="49.02119165692143" lon="1.798101188661333"><ele>170.0</ele><time>2026-03-22T14:13:54Z</time></trkpt><trkpt lat="49.02129954204969" lon="1.7980038615035652"><ele>169.0</ele><time>2026-03-22T14:13:55Z</time></trkpt><trkpt lat="49.02143166816712" lon="1.7978994017465326"><ele>169.0</ele><time>2026-03-22T14:13:56Z</time></trkpt><trkpt lat="49.02155737745927" lon="1.797754653139779"><ele>169.0</ele><time>2026-03-22T14:13:57Z</time></trkpt><trkpt lat="49.02170784921537" lon="1.7976413419500639"><ele>169.0</ele><time>2026-03-22T14:13:58Z</time></trkpt><trkpt lat="49.021848957349256" lon="1.7974888495509587"><ele>168.33333333333334</ele><time>2026-03-22T14:13:59Z</time></trkpt><trkpt lat="49.022015559051624" lon="1.7973374834757139"><ele>167.66666666666666</ele><time>2026-03-22T14:14:00Z</time></trkpt><trkpt lat="49.02220586111541" lon="1.7971875375441795"><ele>167.0</ele><time>2026-03-22T14:14:01Z</time></trkpt><trkpt lat="49.022398101720604" lon="1.7970179890939257"><ele>168.33333333333331</ele><time>2026-03-22T14:14:02Z</time></trkpt><trkpt lat="49.02257609269911" lon="1.7968294407676277"><ele>169.66666666666666</ele><time>2026-03-22T14:14:03Z</time></trkpt><trkpt lat="49.02273735448204" lon="1.7966813799729124"><ele>171.0</ele><time>2026-03-22T14:14:04Z</time></trkpt><trkpt lat="49.02286773293365" lon="1.7965388921832592"><ele>171.0</ele><time>2026-03-22T14:14:05Z</time></trkpt><trkpt lat="49.022988981507375" lon="1.796371207195981"><ele>171.0</ele><time>2026-03-22T14:14:06Z</time></trkpt><trkpt lat="49.02309368506264" lon="1.7961753021490885"><ele>171.0</ele><time>2026-03-22T14:14:07Z</time></trkpt><trkpt lat="49.02318815704867" lon="1.79599790927445"><ele>172.5</ele><time>2026-03-22T14:14:08Z</time></trkpt><trkpt lat="49.02326566617793" lon="1.7958510609318912"><ele>174.0</ele><time>2026-03-22T14:14:09Z</time></trkpt><trkpt lat="49.02332383657564" lon="1.7957191639978762"><ele>175.5</ele><time>2026-03-22T14:14:10Z</time></trkpt><trkpt lat="49.02338451159012" lon="1.79557651099603"><ele>177.0</ele><time>2026-03-22T14:14:11Z</time></trkpt><trkpt lat="49.02347842703378" lon="1.7954339213844979"><ele>177.25</ele><time>2026-03-22T14:14:12Z</time></trkpt><trkpt lat="49.023507641375296" lon="1.7952606260711714"><ele>177.5</ele><time>2026-03-22T14:14:13Z</time></trkpt><trkpt lat="49.02354577314117" lon="1.7950183267062942"><ele>177.75</ele><time>2026-03-22T14:14:14Z</time></trkpt><trkpt lat="49.023538509659794" lon="1.7947766827348897"><ele>178.0</ele><time>2026-03-22T14:14:15Z</time></trkpt><trkpt lat="49.02352531944398" lon="1.7945705107085657"><ele>179.33333333333334</ele><time>2026-03-22T14:14:16Z</time></trkpt><trkpt lat="49.023551401830495" lon="1.7943560065804736"><ele>180.66666666666666</ele><time>2026-03-22T14:14:17Z</time></trkpt><trkpt lat="49.02365450298915" lon="1.7940909677467403"><ele>182.0</ele><time>2026-03-22T14:14:18Z</time></trkpt><trkpt lat="49.02366295678425" lon="1.7938577963258824"><ele>183.33333333333331</ele><time>2026-03-22T14:14:19Z</time></trkpt><trkpt lat="49.02367032109947" lon="1.793654673128005"><ele>184.66666666666666</ele><time>2026-03-22T14:14:20Z</time></trkpt><trkpt lat="49.02345338357327" lon="1.7934777455190007"><ele>186.0</ele><time>2026-03-22T14:14:21Z</time></trkpt><trkpt lat="49.023440572529246" lon="1.7933419259015122"><ele>186.25</ele><time>2026-03-22T14:14:22Z</time></trkpt><trkpt lat="49.02345843587638" lon="1.7931981020237258"><ele>186.5</ele><time>2026-03-22T14:14:23Z</time></trkpt><trkpt lat="49.02347815128317" lon="1.793016633091804"><ele>186.75</ele><time>2026-03-22T14:14:24Z</time></trkpt><trkpt lat="49.02350869632005" lon="1.7927849904991675"><ele>187.0</ele><time>2026-03-22T14:14:25Z</time></trkpt><trkpt lat="49.02352836612551" lon="1.7925364129070498"><ele>187.33333333333334</ele><time>2026-03-22T14:14:26Z</time></trkpt><trkpt lat="49.02353624929586" lon="1.7922726624946468"><ele>187.66666666666666</ele><time>2026-03-22T14:14:27Z</time></trkpt><trkpt lat="49.02354858462519" lon="1.7919721242747162"><ele>188.0</ele><time>2026-03-22T14:14:28Z</time></trkpt><trkpt lat="49.02356687691788" lon="1.7916073927985354"><ele>188.0</ele><time>2026-03-22T14:14:29Z</time></trkpt><trkpt lat="49.023574376490245" lon="1.7912563272184914"><ele>188.0</ele><time>2026-03-22T14:14:30Z</time></trkpt><trkpt lat="49.02357655069422" lon="1.790910030133176"><ele>188.0</ele><time>2026-03-22T14:14:31Z</time></trkpt><trkpt lat="49.02360834932438" lon="1.7905583729714145"><ele>188.0</ele><time>2026-03-22T14:14:32Z</time></trkpt><trkpt lat="49.023635640200425" lon="1.7902122651228147"><ele>188.33333333333331</ele><time>2026-03-22T14:14:33Z</time></trkpt><trkpt lat="49.02363493113996" lon="1.7898923791695394"><ele>188.66666666666666</ele><time>2026-03-22T14:14:34Z</time></trkpt><trkpt lat="49.023622430027814" lon="1.7895514800985508"><ele>189.0</ele><time>2026-03-22T14:14:35Z</time></trkpt><trkpt lat="49.02361693730753" lon="1.7891836894811097"><ele>190.0</ele><time>2026-03-22T14:14:36Z</time></trkpt><trkpt lat="49.023616399041735" lon="1.788808539028693"><ele>191.0</ele><time>2026-03-22T14:14:37Z</time></trkpt><trkpt lat="49.02362321422705" lon="1.7884503712918751"><ele>191.0</ele><time>2026-03-22T14:14:38Z</time></trkpt><trkpt lat="49.02362861200434" lon="1.7880945618030195"><ele>191.0</ele><time>2026-03-22T14:14:39Z</time></trkpt><trkpt lat="49.02364391427364" lon="1.78775306681665"><ele>191.0</ele><time>2026-03-22T14:14:40Z</time></trkpt><trkpt lat="49.02364587165883" lon="1.7874531650452083"><ele>191.0</ele><time>2026-03-22T14:14:41Z</time></trkpt><trkpt lat="49.02365756740602" lon="1.7871438891200375"><ele>191.0</ele><time>2026-03-22T14:14:42Z</time></trkpt><trkpt lat="49.02367492195631" lon="1.786861097921697"><ele>191.0</ele><time>2026-03-22T14:14:42.999Z</time></trkpt><trkpt lat="49.023690933393546" lon="1.786602750832063"><ele>191.0</ele><time>2026-03-22T14:14:43.999Z</time></trkpt><trkpt lat="49.02371270998708" lon="1.7863654129261481"><ele>191.0</ele><time>2026-03-22T14:14:44.999Z</time></trkpt><trkpt lat="49.0237502432186" lon="1.786141733625644"><ele>191.0</ele><time>2026-03-22T14:14:45.999Z</time></trkpt><trkpt lat="49.023805150372176" lon="1.7859165423843655"><ele>191.0</ele><time>2026-03-22T14:14:46.999Z</time></trkpt><trkpt lat="49.02384412645157" lon="1.7857185709252188"><ele>191.0</ele><time>2026-03-22T14:14:47.999Z</time></trkpt><trkpt lat="49.02387235254248" lon="1.785578297328315"><ele>191.0</ele><time>2026-03-22T14:14:48.999Z</time></trkpt><trkpt lat="49.02389942928817" lon="1.7854393711478318"><ele>191.0</ele><time>2026-03-22T14:14:49.999Z</time></trkpt><trkpt lat="49.02391855347333" lon="1.7853045833884469"><ele>191.0</ele><time>2026-03-22T14:14:50.999Z</time></trkpt><trkpt lat="49.02393858045192" lon="1.7851836907202223"><ele>191.0</ele><time>2026-03-22T14:14:51.999Z</time></trkpt><trkpt lat="49.02395886889872" lon="1.785066503549326"><ele>191.0</ele><time>2026-03-22T14:14:52.999Z</time></trkpt><trkpt lat="49.0239839846701" lon="1.7849696484956776"><ele>191.0</ele><time>2026-03-22T14:14:53.999Z</time></trkpt><trkpt lat="49.02401362426093" lon="1.7848738312175096"><ele>191.0</ele><time>2026-03-22T14:14:54.999Z</time></trkpt><trkpt lat="49.024063150641716" lon="1.7847432246560486"><ele>186.0</ele><time>2026-03-22T14:14:56.999Z</time></trkpt></trkseg></trk></gpx>